<?xml version="1.0" encoding="UTF-8" standalone="no" ?>
<gpx xmlns="http://www.topografix.com/GPX/1/1" xmlns:xsi="http://www.w3.org/2001/XMLSchema-instance" xsi:schemaLocation="http://www.topografix.com/GPX/1/1 http://www.topografix.com/GPX/1/1/gpx.xsd" version="1.1" creator="VisuGPX - https://www.visugpx.com">
  <metadata>
    <name>pyrennée_2022</name>
  </metadata>
  <trk>
    <name><![CDATA[Randonnée du 26/01/2022 à 15:42]]></name>
    <trkseg>
      <trkpt lat="43.05906" lon="0.59208">
        <ele>439</ele>
        <time>2022-02-23T18:15:50+01:00</time>
      </trkpt>
      <trkpt lat="43.04526" lon="0.59187">
        <ele>464</ele>
        <time>2022-02-23T18:46:27+01:00</time>
      </trkpt>
      <trkpt lat="43.04398" lon="0.59347">
        <ele>456</ele>
        <time>2022-02-23T18:49:45+01:00</time>
      </trkpt>
      <trkpt lat="43.04239" lon="0.5931">
        <ele>452</ele>
        <time>2022-02-23T18:52:49+01:00</time>
      </trkpt>
      <trkpt lat="43.03911" lon="0.59584">
        <ele>460</ele>
        <time>2022-02-23T19:01:32+01:00</time>
      </trkpt>
      <trkpt lat="43.0348" lon="0.59258">
        <ele>439</ele>
        <time>2022-02-23T19:10:56+01:00</time>
      </trkpt>
      <trkpt lat="43.03059" lon="0.59504">
        <ele>455</ele>
        <time>2022-02-23T19:22:25+01:00</time>
      </trkpt>
      <trkpt lat="43.02435" lon="0.6051">
        <ele>441</ele>
        <time>2022-02-23T19:40:50+01:00</time>
      </trkpt>
      <trkpt lat="43.02161" lon="0.60911">
        <ele>444</ele>
        <time>2022-02-23T19:49:00+01:00</time>
      </trkpt>
      <trkpt lat="43.0183" lon="0.61104">
        <ele>447</ele>
        <time>2022-02-23T19:56:23+01:00</time>
      </trkpt>
      <trkpt lat="43.01139" lon="0.61478">
        <ele>466</ele>
        <time>2022-02-23T20:13:48+01:00</time>
      </trkpt>
      <trkpt lat="43.00597" lon="0.61245">
        <ele>462</ele>
        <time>2022-02-23T20:24:39+01:00</time>
      </trkpt>
      <trkpt lat="42.99047" lon="0.6245">
        <ele>458</ele>
        <time>2022-02-23T20:58:41+01:00</time>
      </trkpt>
      <trkpt lat="42.98711" lon="0.62626">
        <ele>452</ele>
        <time>2022-02-23T21:05:32+01:00</time>
      </trkpt>
      <trkpt lat="42.98376" lon="0.62634">
        <ele>452</ele>
        <time>2022-02-23T21:11:56+01:00</time>
      </trkpt>
      <trkpt lat="42.98084" lon="0.62948">
        <ele>455</ele>
        <time>2022-02-23T21:19:32+01:00</time>
      </trkpt>
      <trkpt lat="42.97632" lon="0.626">
        <ele>460</ele>
        <time>2022-02-23T21:30:17+01:00</time>
      </trkpt>
      <trkpt lat="42.95776" lon="0.63369">
        <ele>470</ele>
        <time>2022-02-23T22:09:00+01:00</time>
      </trkpt>
      <trkpt lat="42.94816" lon="0.64072">
        <ele>470</ele>
        <time>2022-02-23T22:29:48+01:00</time>
      </trkpt>
      <trkpt lat="42.93868" lon="0.64562">
        <ele>477</ele>
        <time>2022-02-23T22:50:20+01:00</time>
      </trkpt>
      <trkpt lat="42.9389" lon="0.65168">
        <ele>477</ele>
        <time>2022-02-23T22:58:48+01:00</time>
      </trkpt>
      <trkpt lat="42.92877" lon="0.66108">
        <ele>480</ele>
        <time>2022-02-23T23:22:42+01:00</time>
      </trkpt>
      <trkpt lat="42.92732" lon="0.67004">
        <ele>481</ele>
        <time>2022-02-23T23:35:42+01:00</time>
      </trkpt>
      <trkpt lat="42.92585" lon="0.6777">
        <ele>486</ele>
        <time>2022-02-23T23:47:37+01:00</time>
      </trkpt>
      <trkpt lat="42.92268" lon="0.68398">
        <ele>499</ele>
        <time>2022-02-24T00:00:31+01:00</time>
      </trkpt>
      <trkpt lat="42.9222" lon="0.68409">
        <ele>496</ele>
        <time>2022-02-24T00:01:27+01:00</time>
      </trkpt>
      <trkpt lat="42.92175" lon="0.68677">
        <ele>490</ele>
        <time>2022-02-24T00:05:18+01:00</time>
      </trkpt>
      <trkpt lat="42.92071" lon="0.68811">
        <ele>490</ele>
        <time>2022-02-24T00:08:01+01:00</time>
      </trkpt>
      <trkpt lat="42.91662" lon="0.69082">
        <ele>506</ele>
        <time>2022-02-24T00:19:27+01:00</time>
      </trkpt>
      <trkpt lat="42.91559" lon="0.69224">
        <ele>501</ele>
        <time>2022-02-24T00:22:14+01:00</time>
      </trkpt>
      <trkpt lat="42.91157" lon="0.69551">
        <ele>513</ele>
        <time>2022-02-24T00:33:13+01:00</time>
      </trkpt>
      <trkpt lat="42.90948" lon="0.69889">
        <ele>517</ele>
        <time>2022-02-24T00:40:05+01:00</time>
      </trkpt>
      <trkpt lat="42.91113" lon="0.69843">
        <ele>546</ele>
        <time>2022-02-24T00:48:15+01:00</time>
      </trkpt>
      <trkpt lat="42.91035" lon="0.70168">
        <ele>557</ele>
        <time>2022-02-24T00:54:55+01:00</time>
      </trkpt>
      <trkpt lat="42.91263" lon="0.70881">
        <ele>632</ele>
        <time>2022-02-24T01:18:39+01:00</time>
      </trkpt>
      <trkpt lat="42.91444" lon="0.71334">
        <ele>665</ele>
        <time>2022-02-24T01:31:31+01:00</time>
      </trkpt>
      <trkpt lat="42.91613" lon="0.71478">
        <ele>688</ele>
        <time>2022-02-24T01:39:16+01:00</time>
      </trkpt>
      <trkpt lat="42.91695" lon="0.71588">
        <ele>701</ele>
        <time>2022-02-24T01:43:42+01:00</time>
      </trkpt>
      <trkpt lat="42.91715" lon="0.71762">
        <ele>700</ele>
        <time>2022-02-24T01:46:10+01:00</time>
      </trkpt>
      <trkpt lat="42.92021" lon="0.71866">
        <ele>739</ele>
        <time>2022-02-24T01:58:52+01:00</time>
      </trkpt>
      <trkpt lat="42.92023" lon="0.72156">
        <ele>760</ele>
        <time>2022-02-24T02:06:31+01:00</time>
      </trkpt>
      <trkpt lat="42.92258" lon="0.72004">
        <ele>798</ele>
        <time>2022-02-24T02:18:00+01:00</time>
      </trkpt>
      <trkpt lat="42.92268" lon="0.72134">
        <ele>814</ele>
        <time>2022-02-24T02:22:35+01:00</time>
      </trkpt>
      <trkpt lat="42.92158" lon="0.72322">
        <ele>833</ele>
        <time>2022-02-24T02:29:12+01:00</time>
      </trkpt>
      <trkpt lat="42.91883" lon="0.72668">
        <ele>852</ele>
        <time>2022-02-24T02:39:35+01:00</time>
      </trkpt>
      <trkpt lat="42.91793" lon="0.73269">
        <ele>912</ele>
        <time>2022-02-24T02:58:26+01:00</time>
      </trkpt>
      <trkpt lat="42.91664" lon="0.73709">
        <ele>945</ele>
        <time>2022-02-24T03:10:43+01:00</time>
      </trkpt>
      <trkpt lat="42.91725" lon="0.73828">
        <ele>971</ele>
        <time>2022-02-24T03:17:12+01:00</time>
      </trkpt>
      <trkpt lat="42.91615" lon="0.73896">
        <ele>983</ele>
        <time>2022-02-24T03:21:34+01:00</time>
      </trkpt>
      <trkpt lat="42.91581" lon="0.74162">
        <ele>1008</ele>
        <time>2022-02-24T03:29:37+01:00</time>
      </trkpt>
      <trkpt lat="42.91516" lon="0.74289">
        <ele>1017</ele>
        <time>2022-02-24T03:33:19+01:00</time>
      </trkpt>
      <trkpt lat="42.91494" lon="0.74532">
        <ele>1032</ele>
        <time>2022-02-24T03:39:19+01:00</time>
      </trkpt>
      <trkpt lat="42.91552" lon="0.74398">
        <ele>1050</ele>
        <time>2022-02-24T03:44:35+01:00</time>
      </trkpt>
      <trkpt lat="42.91543" lon="0.75137">
        <ele>1103</ele>
        <time>2022-02-24T04:04:00+01:00</time>
      </trkpt>
      <trkpt lat="42.91359" lon="0.75211">
        <ele>1115</ele>
        <time>2022-02-24T04:09:43+01:00</time>
      </trkpt>
      <trkpt lat="42.91321" lon="0.75397">
        <ele>1132</ele>
        <time>2022-02-24T04:15:20+01:00</time>
      </trkpt>
      <trkpt lat="42.91407" lon="0.75316">
        <ele>1149</ele>
        <time>2022-02-24T04:20:15+01:00</time>
      </trkpt>
      <trkpt lat="42.91366" lon="0.75524">
        <ele>1162</ele>
        <time>2022-02-24T04:25:30+01:00</time>
      </trkpt>
      <trkpt lat="42.91457" lon="0.7546">
        <ele>1176</ele>
        <time>2022-02-24T04:29:51+01:00</time>
      </trkpt>
      <trkpt lat="42.91408" lon="0.75672">
        <ele>1191</ele>
        <time>2022-02-24T04:35:32+01:00</time>
      </trkpt>
      <trkpt lat="42.91478" lon="0.75604">
        <ele>1201</ele>
        <time>2022-02-24T04:38:53+01:00</time>
      </trkpt>
      <trkpt lat="42.91464" lon="0.75724">
        <ele>1212</ele>
        <time>2022-02-24T04:42:28+01:00</time>
      </trkpt>
      <trkpt lat="42.91527" lon="0.75673">
        <ele>1217</ele>
        <time>2022-02-24T04:44:43+01:00</time>
      </trkpt>
      <trkpt lat="42.91657" lon="0.75763">
        <ele>1233</ele>
        <time>2022-02-24T04:50:14+01:00</time>
      </trkpt>
      <trkpt lat="42.91685" lon="0.75604">
        <ele>1236</ele>
        <time>2022-02-24T04:53:02+01:00</time>
      </trkpt>
      <trkpt lat="42.91753" lon="0.75866">
        <ele>1264</ele>
        <time>2022-02-24T05:01:43+01:00</time>
      </trkpt>
      <trkpt lat="42.91762" lon="0.75744">
        <ele>1272</ele>
        <time>2022-02-24T05:04:48+01:00</time>
      </trkpt>
      <trkpt lat="42.91823" lon="0.75919">
        <ele>1284</ele>
        <time>2022-02-24T05:09:34+01:00</time>
      </trkpt>
      <trkpt lat="42.91796" lon="0.75678">
        <ele>1304</ele>
        <time>2022-02-24T05:16:24+01:00</time>
      </trkpt>
      <trkpt lat="42.919" lon="0.7592">
        <ele>1321</ele>
        <time>2022-02-24T05:23:14+01:00</time>
      </trkpt>
      <trkpt lat="42.91937" lon="0.76157">
        <ele>1343</ele>
        <time>2022-02-24T05:30:24+01:00</time>
      </trkpt>
      <trkpt lat="42.91897" lon="0.76888">
        <ele>1289</ele>
        <time>2022-02-24T05:40:39+01:00</time>
      </trkpt>
      <trkpt lat="42.91813" lon="0.76947">
        <ele>1294</ele>
        <time>2022-02-24T05:43:18+01:00</time>
      </trkpt>
      <trkpt lat="42.91831" lon="0.77204">
        <ele>1276</ele>
        <time>2022-02-24T05:46:55+01:00</time>
      </trkpt>
      <trkpt lat="42.91898" lon="0.77292">
        <ele>1262</ele>
        <time>2022-02-24T05:48:42+01:00</time>
      </trkpt>
      <trkpt lat="42.91909" lon="0.776">
        <ele>1241</ele>
        <time>2022-02-24T05:53:01+01:00</time>
      </trkpt>
      <trkpt lat="42.91834" lon="0.77598">
        <ele>1235</ele>
        <time>2022-02-24T05:54:26+01:00</time>
      </trkpt>
      <trkpt lat="42.91909" lon="0.77687">
        <ele>1228</ele>
        <time>2022-02-24T05:56:19+01:00</time>
      </trkpt>
      <trkpt lat="42.91977" lon="0.77944">
        <ele>1207</ele>
        <time>2022-02-24T06:00:09+01:00</time>
      </trkpt>
      <trkpt lat="42.9191" lon="0.77806">
        <ele>1198</ele>
        <time>2022-02-24T06:02:28+01:00</time>
      </trkpt>
      <trkpt lat="42.91817" lon="0.77764">
        <ele>1191</ele>
        <time>2022-02-24T06:04:20+01:00</time>
      </trkpt>
      <trkpt lat="42.91886" lon="0.7789">
        <ele>1179</ele>
        <time>2022-02-24T06:06:32+01:00</time>
      </trkpt>
      <trkpt lat="42.91838" lon="0.77904">
        <ele>1175</ele>
        <time>2022-02-24T06:07:28+01:00</time>
      </trkpt>
      <trkpt lat="42.92045" lon="0.78256">
        <ele>1134</ele>
        <time>2022-02-24T06:13:47+01:00</time>
      </trkpt>
      <trkpt lat="42.91931" lon="0.78139">
        <ele>1132</ele>
        <time>2022-02-24T06:16:30+01:00</time>
      </trkpt>
      <trkpt lat="42.92175" lon="0.78702">
        <ele>1112</ele>
        <time>2022-02-24T06:25:38+01:00</time>
      </trkpt>
      <trkpt lat="42.9205" lon="0.78526">
        <ele>1074</ele>
        <time>2022-02-24T06:29:03+01:00</time>
      </trkpt>
      <trkpt lat="42.92179" lon="0.79101">
        <ele>1048</ele>
        <time>2022-02-24T06:37:27+01:00</time>
      </trkpt>
      <trkpt lat="42.92048" lon="0.78862">
        <ele>1015</ele>
        <time>2022-02-24T06:41:37+01:00</time>
      </trkpt>
      <trkpt lat="42.92188" lon="0.79469">
        <ele>969</ele>
        <time>2022-02-24T06:50:31+01:00</time>
      </trkpt>
      <trkpt lat="42.92432" lon="0.80139">
        <ele>917</ele>
        <time>2022-02-24T07:00:59+01:00</time>
      </trkpt>
      <trkpt lat="42.92238" lon="0.79927">
        <ele>897</ele>
        <time>2022-02-24T07:05:44+01:00</time>
      </trkpt>
      <trkpt lat="42.92412" lon="0.80282">
        <ele>850</ele>
        <time>2022-02-24T07:11:42+01:00</time>
      </trkpt>
      <trkpt lat="42.92185" lon="0.80214">
        <ele>830</ele>
        <time>2022-02-24T07:16:08+01:00</time>
      </trkpt>
      <trkpt lat="42.92288" lon="0.80412">
        <ele>800</ele>
        <time>2022-02-24T07:19:32+01:00</time>
      </trkpt>
      <trkpt lat="42.92166" lon="0.80327">
        <ele>802</ele>
        <time>2022-02-24T07:22:30+01:00</time>
      </trkpt>
      <trkpt lat="42.92165" lon="0.80417">
        <ele>795</ele>
        <time>2022-02-24T07:23:45+01:00</time>
      </trkpt>
      <trkpt lat="42.92088" lon="0.80421">
        <ele>787</ele>
        <time>2022-02-24T07:25:13+01:00</time>
      </trkpt>
      <trkpt lat="42.92222" lon="0.80626">
        <ele>792</ele>
        <time>2022-02-24T07:29:55+01:00</time>
      </trkpt>
      <trkpt lat="42.92498" lon="0.80457">
        <ele>795</ele>
        <time>2022-02-24T07:36:12+01:00</time>
      </trkpt>
      <trkpt lat="42.92771" lon="0.80781">
        <ele>779</ele>
        <time>2022-02-24T07:43:06+01:00</time>
      </trkpt>
      <trkpt lat="42.92833" lon="0.80667">
        <ele>761</ele>
        <time>2022-02-24T07:45:05+01:00</time>
      </trkpt>
      <trkpt lat="42.93078" lon="0.8075">
        <ele>756</ele>
        <time>2022-02-24T07:49:54+01:00</time>
      </trkpt>
      <trkpt lat="42.93221" lon="0.8088">
        <ele>727</ele>
        <time>2022-02-24T07:53:11+01:00</time>
      </trkpt>
      <trkpt lat="42.93232" lon="0.80712">
        <ele>711</ele>
        <time>2022-02-24T07:55:33+01:00</time>
      </trkpt>
      <trkpt lat="42.9333" lon="0.80728">
        <ele>705</ele>
        <time>2022-02-24T07:57:26+01:00</time>
      </trkpt>
      <trkpt lat="42.93376" lon="0.80579">
        <ele>698</ele>
        <time>2022-02-24T07:59:41+01:00</time>
      </trkpt>
      <trkpt lat="42.94858" lon="0.81623">
        <ele>638</ele>
        <time>2022-02-24T08:31:30+01:00</time>
      </trkpt>
      <trkpt lat="42.95006" lon="0.81633">
        <ele>645</ele>
        <time>2022-02-24T08:35:31+01:00</time>
      </trkpt>
      <trkpt lat="42.95062" lon="0.81817">
        <ele>672</ele>
        <time>2022-02-24T08:42:56+01:00</time>
      </trkpt>
      <trkpt lat="42.94334" lon="0.83494">
        <ele>846</ele>
        <time>2022-02-24T09:40:00+01:00</time>
      </trkpt>
      <trkpt lat="42.94147" lon="0.83497">
        <ele>876</ele>
        <time>2022-02-24T09:48:42+01:00</time>
      </trkpt>
      <trkpt lat="42.94309" lon="0.83602">
        <ele>874</ele>
        <time>2022-02-24T09:52:06+01:00</time>
      </trkpt>
      <trkpt lat="42.94336" lon="0.83844">
        <ele>903</ele>
        <time>2022-02-24T10:00:30+01:00</time>
      </trkpt>
      <trkpt lat="42.94234" lon="0.83911">
        <ele>922</ele>
        <time>2022-02-24T10:05:55+01:00</time>
      </trkpt>
      <trkpt lat="42.94418" lon="0.84174">
        <ele>937</ele>
        <time>2022-02-24T10:13:34+01:00</time>
      </trkpt>
      <trkpt lat="42.94463" lon="0.84591">
        <ele>986</ele>
        <time>2022-02-24T10:27:51+01:00</time>
      </trkpt>
      <trkpt lat="42.94428" lon="0.84959">
        <ele>1016</ele>
        <time>2022-02-24T10:38:10+01:00</time>
      </trkpt>
      <trkpt lat="42.94251" lon="0.84967">
        <ele>1040</ele>
        <time>2022-02-24T10:45:39+01:00</time>
      </trkpt>
      <trkpt lat="42.94286" lon="0.8511">
        <ele>1043</ele>
        <time>2022-02-24T10:48:16+01:00</time>
      </trkpt>
      <trkpt lat="42.94587" lon="0.85487">
        <ele>1055</ele>
        <time>2022-02-24T10:58:06+01:00</time>
      </trkpt>
      <trkpt lat="42.94597" lon="0.85909">
        <ele>1018</ele>
        <time>2022-02-24T11:04:00+01:00</time>
      </trkpt>
      <trkpt lat="42.94464" lon="0.8573">
        <ele>988</ele>
        <time>2022-02-24T11:07:33+01:00</time>
      </trkpt>
      <trkpt lat="42.94504" lon="0.86119">
        <ele>951</ele>
        <time>2022-02-24T11:13:02+01:00</time>
      </trkpt>
      <trkpt lat="42.94427" lon="0.86548">
        <ele>918</ele>
        <time>2022-02-24T11:19:12+01:00</time>
      </trkpt>
      <trkpt lat="42.94304" lon="0.86334">
        <ele>900</ele>
        <time>2022-02-24T11:23:01+01:00</time>
      </trkpt>
      <trkpt lat="42.94222" lon="0.86521">
        <ele>873</ele>
        <time>2022-02-24T11:26:03+01:00</time>
      </trkpt>
      <trkpt lat="42.94026" lon="0.866">
        <ele>859</ele>
        <time>2022-02-24T11:29:57+01:00</time>
      </trkpt>
      <trkpt lat="42.93929" lon="0.86815">
        <ele>848</ele>
        <time>2022-02-24T11:33:29+01:00</time>
      </trkpt>
      <trkpt lat="42.93794" lon="0.87362">
        <ele>817</ele>
        <time>2022-02-24T11:41:32+01:00</time>
      </trkpt>
      <trkpt lat="42.94049" lon="0.87872">
        <ele>802</ele>
        <time>2022-02-24T11:50:10+01:00</time>
      </trkpt>
      <trkpt lat="42.93857" lon="0.88346">
        <ele>759</ele>
        <time>2022-02-24T11:57:44+01:00</time>
      </trkpt>
      <trkpt lat="42.92881" lon="0.89618">
        <ele>682</ele>
        <time>2022-02-24T12:23:28+01:00</time>
      </trkpt>
      <trkpt lat="42.93015" lon="0.90543">
        <ele>670</ele>
        <time>2022-02-24T12:36:38+01:00</time>
      </trkpt>
      <trkpt lat="42.92887" lon="0.91046">
        <ele>681</ele>
        <time>2022-02-24T12:45:58+01:00</time>
      </trkpt>
      <trkpt lat="42.92994" lon="0.91526">
        <ele>640</ele>
        <time>2022-02-24T12:52:59+01:00</time>
      </trkpt>
      <trkpt lat="42.932" lon="0.91675">
        <ele>630</ele>
        <time>2022-02-24T12:57:27+01:00</time>
      </trkpt>
      <trkpt lat="42.93219" lon="0.92357">
        <ele>629</ele>
        <time>2022-02-24T13:06:59+01:00</time>
      </trkpt>
      <trkpt lat="42.93211" lon="0.92754">
        <ele>632</ele>
        <time>2022-02-24T13:13:03+01:00</time>
      </trkpt>
      <trkpt lat="42.93006" lon="0.92921">
        <ele>645</ele>
        <time>2022-02-24T13:19:51+01:00</time>
      </trkpt>
      <trkpt lat="42.93433" lon="0.93948">
        <ele>643</ele>
        <time>2022-02-24T13:36:21+01:00</time>
      </trkpt>
      <trkpt lat="42.93618" lon="0.94081">
        <ele>648</ele>
        <time>2022-02-24T13:41:12+01:00</time>
      </trkpt>
      <trkpt lat="42.93496" lon="0.94409">
        <ele>614</ele>
        <time>2022-02-24T13:46:21+01:00</time>
      </trkpt>
      <trkpt lat="42.93775" lon="0.95228">
        <ele>574</ele>
        <time>2022-02-24T13:58:58+01:00</time>
      </trkpt>
      <trkpt lat="42.93667" lon="0.95443">
        <ele>575</ele>
        <time>2022-02-24T14:02:47+01:00</time>
      </trkpt>
      <trkpt lat="42.93741" lon="0.96191">
        <ele>579</ele>
        <time>2022-02-24T14:14:01+01:00</time>
      </trkpt>
      <trkpt lat="42.93631" lon="0.96308">
        <ele>567</ele>
        <time>2022-02-24T14:16:41+01:00</time>
      </trkpt>
      <trkpt lat="42.93708" lon="0.96761">
        <ele>560</ele>
        <time>2022-02-24T14:23:11+01:00</time>
      </trkpt>
      <trkpt lat="42.93334" lon="0.97895">
        <ele>550</ele>
        <time>2022-02-24T14:40:33+01:00</time>
      </trkpt>
      <trkpt lat="42.9319" lon="0.99182">
        <ele>548</ele>
        <time>2022-02-24T14:58:44+01:00</time>
      </trkpt>
      <trkpt lat="42.92589" lon="1.0025">
        <ele>534</ele>
        <time>2022-02-24T15:17:34+01:00</time>
      </trkpt>
      <trkpt lat="42.92856" lon="1.02943">
        <ele>526</ele>
        <time>2022-02-24T15:55:32+01:00</time>
      </trkpt>
      <trkpt lat="42.92064" lon="1.0315">
        <ele>541</ele>
        <time>2022-02-24T16:13:29+01:00</time>
      </trkpt>
      <trkpt lat="42.91263" lon="1.02888">
        <ele>569</ele>
        <time>2022-02-24T16:34:01+01:00</time>
      </trkpt>
      <trkpt lat="42.90288" lon="1.02924">
        <ele>556</ele>
        <time>2022-02-24T16:52:37+01:00</time>
      </trkpt>
      <trkpt lat="42.90116" lon="1.03272">
        <ele>597</ele>
        <time>2022-02-24T17:05:30+01:00</time>
      </trkpt>
      <trkpt lat="42.89948" lon="1.03098">
        <ele>610</ele>
        <time>2022-02-24T17:11:45+01:00</time>
      </trkpt>
      <trkpt lat="42.89903" lon="1.03114">
        <ele>608</ele>
        <time>2022-02-24T17:12:38+01:00</time>
      </trkpt>
      <trkpt lat="42.898" lon="1.0367">
        <ele>649</ele>
        <time>2022-02-24T17:27:41+01:00</time>
      </trkpt>
      <trkpt lat="42.89551" lon="1.04145">
        <ele>659</ele>
        <time>2022-02-24T17:37:33+01:00</time>
      </trkpt>
      <trkpt lat="42.89639" lon="1.04458">
        <ele>681</ele>
        <time>2022-02-24T17:46:00+01:00</time>
      </trkpt>
      <trkpt lat="42.89537" lon="1.04367">
        <ele>686</ele>
        <time>2022-02-24T17:49:11+01:00</time>
      </trkpt>
      <trkpt lat="42.89455" lon="1.05096">
        <ele>728</ele>
        <time>2022-02-24T18:06:42+01:00</time>
      </trkpt>
      <trkpt lat="42.89261" lon="1.051">
        <ele>740</ele>
        <time>2022-02-24T18:12:28+01:00</time>
      </trkpt>
      <trkpt lat="42.89075" lon="1.05359">
        <ele>737</ele>
        <time>2022-02-24T18:17:33+01:00</time>
      </trkpt>
      <trkpt lat="42.89071" lon="1.05611">
        <ele>740</ele>
        <time>2022-02-24T18:21:35+01:00</time>
      </trkpt>
      <trkpt lat="42.88954" lon="1.05711">
        <ele>766</ele>
        <time>2022-02-24T18:28:41+01:00</time>
      </trkpt>
      <trkpt lat="42.88897" lon="1.05966">
        <ele>779</ele>
        <time>2022-02-24T18:34:38+01:00</time>
      </trkpt>
      <trkpt lat="42.88723" lon="1.05942">
        <ele>763</ele>
        <time>2022-02-24T18:37:58+01:00</time>
      </trkpt>
      <trkpt lat="42.88659" lon="1.06418">
        <ele>779</ele>
        <time>2022-02-24T18:47:28+01:00</time>
      </trkpt>
      <trkpt lat="42.88317" lon="1.06745">
        <ele>771</ele>
        <time>2022-02-24T18:55:26+01:00</time>
      </trkpt>
      <trkpt lat="42.88137" lon="1.06917">
        <ele>794</ele>
        <time>2022-02-24T19:03:34+01:00</time>
      </trkpt>
      <trkpt lat="42.88182" lon="1.07026">
        <ele>796</ele>
        <time>2022-02-24T19:05:39+01:00</time>
      </trkpt>
      <trkpt lat="42.88052" lon="1.07121">
        <ele>818</ele>
        <time>2022-02-24T19:12:14+01:00</time>
      </trkpt>
      <trkpt lat="42.87975" lon="1.07072">
        <ele>812</ele>
        <time>2022-02-24T19:13:52+01:00</time>
      </trkpt>
      <trkpt lat="42.87853" lon="1.07331">
        <ele>855</ele>
        <time>2022-02-24T19:25:33+01:00</time>
      </trkpt>
      <trkpt lat="42.87784" lon="1.0759">
        <ele>840</ele>
        <time>2022-02-24T19:29:25+01:00</time>
      </trkpt>
      <trkpt lat="42.87606" lon="1.07656">
        <ele>873</ele>
        <time>2022-02-24T19:38:36+01:00</time>
      </trkpt>
      <trkpt lat="42.86806" lon="1.08984">
        <ele>976</ele>
        <time>2022-02-24T20:20:18+01:00</time>
      </trkpt>
      <trkpt lat="42.86538" lon="1.09273">
        <ele>1005</ele>
        <time>2022-02-24T20:31:47+01:00</time>
      </trkpt>
      <trkpt lat="42.86581" lon="1.08749">
        <ele>1034</ele>
        <time>2022-02-24T20:44:08+01:00</time>
      </trkpt>
      <trkpt lat="42.86392" lon="1.08531">
        <ele>1052</ele>
        <time>2022-02-24T20:51:56+01:00</time>
      </trkpt>
      <trkpt lat="42.86477" lon="1.08798">
        <ele>1064</ele>
        <time>2022-02-24T20:58:04+01:00</time>
      </trkpt>
      <trkpt lat="42.86331" lon="1.09002">
        <ele>1093</ele>
        <time>2022-02-24T21:07:02+01:00</time>
      </trkpt>
      <trkpt lat="42.86155" lon="1.09462">
        <ele>1094</ele>
        <time>2022-02-24T21:14:28+01:00</time>
      </trkpt>
      <trkpt lat="42.85625" lon="1.09231">
        <ele>1143</ele>
        <time>2022-02-24T21:33:29+01:00</time>
      </trkpt>
      <trkpt lat="42.8544" lon="1.0945">
        <ele>1170</ele>
        <time>2022-02-24T21:42:46+01:00</time>
      </trkpt>
      <trkpt lat="42.85532" lon="1.09692">
        <ele>1211</ele>
        <time>2022-02-24T21:53:37+01:00</time>
      </trkpt>
      <trkpt lat="42.85935" lon="1.09944">
        <ele>1235</ele>
        <time>2022-02-24T22:06:11+01:00</time>
      </trkpt>
      <trkpt lat="42.86251" lon="1.10332">
        <ele>1280</ele>
        <time>2022-02-24T22:22:00+01:00</time>
      </trkpt>
      <trkpt lat="42.86409" lon="1.10341">
        <ele>1294</ele>
        <time>2022-02-24T22:27:25+01:00</time>
      </trkpt>
      <trkpt lat="42.86632" lon="1.10049">
        <ele>1330</ele>
        <time>2022-02-24T22:39:30+01:00</time>
      </trkpt>
      <trkpt lat="42.86547" lon="1.10326">
        <ele>1350</ele>
        <time>2022-02-24T22:47:08+01:00</time>
      </trkpt>
      <trkpt lat="42.86488" lon="1.10481">
        <ele>1352</ele>
        <time>2022-02-24T22:49:55+01:00</time>
      </trkpt>
      <trkpt lat="42.86153" lon="1.10614">
        <ele>1381</ele>
        <time>2022-02-24T23:01:33+01:00</time>
      </trkpt>
      <trkpt lat="42.85951" lon="1.10512">
        <ele>1406</ele>
        <time>2022-02-24T23:09:57+01:00</time>
      </trkpt>
      <trkpt lat="42.85634" lon="1.10601">
        <ele>1360</ele>
        <time>2022-02-24T23:16:08+01:00</time>
      </trkpt>
      <trkpt lat="42.85567" lon="1.10853">
        <ele>1364</ele>
        <time>2022-02-24T23:20:34+01:00</time>
      </trkpt>
      <trkpt lat="42.85691" lon="1.10659">
        <ele>1335</ele>
        <time>2022-02-24T23:24:09+01:00</time>
      </trkpt>
      <trkpt lat="42.85999" lon="1.11118">
        <ele>1318</ele>
        <time>2022-02-24T23:32:51+01:00</time>
      </trkpt>
      <trkpt lat="42.85988" lon="1.13102">
        <ele>1162</ele>
        <time>2022-02-25T00:00:37+01:00</time>
      </trkpt>
      <trkpt lat="42.85774" lon="1.14386">
        <ele>1103</ele>
        <time>2022-02-25T00:19:02+01:00</time>
      </trkpt>
      <trkpt lat="42.85728" lon="1.15224">
        <ele>1046</ele>
        <time>2022-02-25T00:30:47+01:00</time>
      </trkpt>
      <trkpt lat="42.85855" lon="1.15737">
        <ele>1021</ele>
        <time>2022-02-25T00:38:21+01:00</time>
      </trkpt>
      <trkpt lat="42.86063" lon="1.16283">
        <ele>989</ele>
        <time>2022-02-25T00:46:57+01:00</time>
      </trkpt>
      <trkpt lat="42.86334" lon="1.16267">
        <ele>986</ele>
        <time>2022-02-25T00:52:08+01:00</time>
      </trkpt>
      <trkpt lat="42.8644" lon="1.16531">
        <ele>939</ele>
        <time>2022-02-25T00:56:21+01:00</time>
      </trkpt>
      <trkpt lat="42.86924" lon="1.16118">
        <ele>903</ele>
        <time>2022-02-25T01:07:14+01:00</time>
      </trkpt>
      <trkpt lat="42.86725" lon="1.16439">
        <ele>891</ele>
        <time>2022-02-25T01:13:07+01:00</time>
      </trkpt>
      <trkpt lat="42.87106" lon="1.16163">
        <ele>838</ele>
        <time>2022-02-25T01:21:22+01:00</time>
      </trkpt>
      <trkpt lat="42.87595" lon="1.16228">
        <ele>797</ele>
        <time>2022-02-25T01:30:44+01:00</time>
      </trkpt>
      <trkpt lat="42.87657" lon="1.17629">
        <ele>712</ele>
        <time>2022-02-25T01:50:21+01:00</time>
      </trkpt>
      <trkpt lat="42.87538" lon="1.17347">
        <ele>694</ele>
        <time>2022-02-25T01:54:54+01:00</time>
      </trkpt>
      <trkpt lat="42.87553" lon="1.18019">
        <ele>650</ele>
        <time>2022-02-25T02:04:18+01:00</time>
      </trkpt>
      <trkpt lat="42.87399" lon="1.17777">
        <ele>640</ele>
        <time>2022-02-25T02:08:46+01:00</time>
      </trkpt>
      <trkpt lat="42.8634" lon="1.20186">
        <ele>508</ele>
        <time>2022-02-25T02:48:04+01:00</time>
      </trkpt>
      <trkpt lat="42.85966" lon="1.19825">
        <ele>520</ele>
        <time>2022-02-25T02:58:52+01:00</time>
      </trkpt>
      <trkpt lat="42.85463" lon="1.19672">
        <ele>527</ele>
        <time>2022-02-25T03:09:54+01:00</time>
      </trkpt>
      <trkpt lat="42.85282" lon="1.19303">
        <ele>522</ele>
        <time>2022-02-25T03:16:06+01:00</time>
      </trkpt>
      <trkpt lat="42.84715" lon="1.19269">
        <ele>536</ele>
        <time>2022-02-25T03:29:20+01:00</time>
      </trkpt>
      <trkpt lat="42.84258" lon="1.1912">
        <ele>544</ele>
        <time>2022-02-25T03:39:40+01:00</time>
      </trkpt>
      <trkpt lat="42.83867" lon="1.19851">
        <ele>554</ele>
        <time>2022-02-25T03:54:02+01:00</time>
      </trkpt>
      <trkpt lat="42.83545" lon="1.19615">
        <ele>560</ele>
        <time>2022-02-25T04:02:03+01:00</time>
      </trkpt>
      <trkpt lat="42.83209" lon="1.19874">
        <ele>568</ele>
        <time>2022-02-25T04:10:47+01:00</time>
      </trkpt>
      <trkpt lat="42.83382" lon="1.20768">
        <ele>580</ele>
        <time>2022-02-25T04:25:47+01:00</time>
      </trkpt>
      <trkpt lat="42.82664" lon="1.22897">
        <ele>653</ele>
        <time>2022-02-25T05:11:05+01:00</time>
      </trkpt>
      <trkpt lat="42.81695" lon="1.2454">
        <ele>659</ele>
        <time>2022-02-25T05:41:38+01:00</time>
      </trkpt>
      <trkpt lat="42.80183" lon="1.27299">
        <ele>703</ele>
        <time>2022-02-25T06:37:23+01:00</time>
      </trkpt>
      <trkpt lat="42.80781" lon="1.26931">
        <ele>768</ele>
        <time>2022-02-25T07:01:03+01:00</time>
      </trkpt>
      <trkpt lat="42.80246" lon="1.27735">
        <ele>811</ele>
        <time>2022-02-25T07:23:37+01:00</time>
      </trkpt>
      <trkpt lat="42.80522" lon="1.27568">
        <ele>893</ele>
        <time>2022-02-25T07:43:27+01:00</time>
      </trkpt>
      <trkpt lat="42.80056" lon="1.30206">
        <ele>1064</ele>
        <time>2022-02-25T08:50:46+01:00</time>
      </trkpt>
      <trkpt lat="42.79124" lon="1.31934">
        <ele>1058</ele>
        <time>2022-02-25T09:20:47+01:00</time>
      </trkpt>
      <trkpt lat="42.79453" lon="1.31999">
        <ele>1003</ele>
        <time>2022-02-25T09:27:07+01:00</time>
      </trkpt>
      <trkpt lat="42.78632" lon="1.32521">
        <ele>944</ele>
        <time>2022-02-25T09:44:25+01:00</time>
      </trkpt>
      <trkpt lat="42.79079" lon="1.32432">
        <ele>880</ele>
        <time>2022-02-25T09:53:03+01:00</time>
      </trkpt>
      <trkpt lat="42.78716" lon="1.32694">
        <ele>877</ele>
        <time>2022-02-25T10:00:53+01:00</time>
      </trkpt>
      <trkpt lat="42.78942" lon="1.32961">
        <ele>823</ele>
        <time>2022-02-25T10:06:36+01:00</time>
      </trkpt>
      <trkpt lat="42.78736" lon="1.33807">
        <ele>787</ele>
        <time>2022-02-25T10:19:05+01:00</time>
      </trkpt>
      <trkpt lat="42.79008" lon="1.3362">
        <ele>740</ele>
        <time>2022-02-25T10:24:54+01:00</time>
      </trkpt>
      <trkpt lat="42.78376" lon="1.36874">
        <ele>1013</ele>
        <time>2022-02-25T11:58:50+01:00</time>
      </trkpt>
      <trkpt lat="42.7798" lon="1.37541">
        <ele>1079</ele>
        <time>2022-02-25T12:22:10+01:00</time>
      </trkpt>
      <trkpt lat="42.77653" lon="1.37712">
        <ele>1115</ele>
        <time>2022-02-25T12:35:02+01:00</time>
      </trkpt>
      <trkpt lat="42.7743" lon="1.38072">
        <ele>1158</ele>
        <time>2022-02-25T12:49:01+01:00</time>
      </trkpt>
      <trkpt lat="42.77906" lon="1.37736">
        <ele>1185</ele>
        <time>2022-02-25T13:03:53+01:00</time>
      </trkpt>
      <trkpt lat="42.77762" lon="1.37866">
        <ele>1227</ele>
        <time>2022-02-25T13:14:23+01:00</time>
      </trkpt>
      <trkpt lat="42.77988" lon="1.37816">
        <ele>1237</ele>
        <time>2022-02-25T13:20:27+01:00</time>
      </trkpt>
      <trkpt lat="42.77836" lon="1.37914">
        <ele>1264</ele>
        <time>2022-02-25T13:28:17+01:00</time>
      </trkpt>
      <trkpt lat="42.78155" lon="1.37902">
        <ele>1283</ele>
        <time>2022-02-25T13:37:39+01:00</time>
      </trkpt>
      <trkpt lat="42.7783" lon="1.3809">
        <ele>1338</ele>
        <time>2022-02-25T13:53:50+01:00</time>
      </trkpt>
      <trkpt lat="42.78065" lon="1.38075">
        <ele>1355</ele>
        <time>2022-02-25T14:01:14+01:00</time>
      </trkpt>
      <trkpt lat="42.78349" lon="1.38947">
        <ele>1414</ele>
        <time>2022-02-25T14:24:43+01:00</time>
      </trkpt>
      <trkpt lat="42.7927" lon="1.37612">
        <ele>1523</ele>
        <time>2022-02-25T15:09:03+01:00</time>
      </trkpt>
      <trkpt lat="42.79265" lon="1.37852">
        <ele>1570</ele>
        <time>2022-02-25T15:20:28+01:00</time>
      </trkpt>
      <trkpt lat="42.79397" lon="1.37387">
        <ele>1574</ele>
        <time>2022-02-25T15:28:08+01:00</time>
      </trkpt>
      <trkpt lat="42.79525" lon="1.37321">
        <ele>1563</ele>
        <time>2022-02-25T15:30:45+01:00</time>
      </trkpt>
      <trkpt lat="42.79442" lon="1.37264">
        <ele>1558</ele>
        <time>2022-02-25T15:32:31+01:00</time>
      </trkpt>
      <trkpt lat="42.79473" lon="1.36963">
        <ele>1555</ele>
        <time>2022-02-25T15:36:46+01:00</time>
      </trkpt>
      <trkpt lat="42.79719" lon="1.36779">
        <ele>1505</ele>
        <time>2022-02-25T15:42:07+01:00</time>
      </trkpt>
      <trkpt lat="42.79996" lon="1.3695">
        <ele>1475</ele>
        <time>2022-02-25T15:47:56+01:00</time>
      </trkpt>
      <trkpt lat="42.79778" lon="1.36985">
        <ele>1468</ele>
        <time>2022-02-25T15:52:07+01:00</time>
      </trkpt>
      <trkpt lat="42.79823" lon="1.37268">
        <ele>1451</ele>
        <time>2022-02-25T15:56:10+01:00</time>
      </trkpt>
      <trkpt lat="42.80156" lon="1.37361">
        <ele>1411</ele>
        <time>2022-02-25T16:02:38+01:00</time>
      </trkpt>
      <trkpt lat="42.80268" lon="1.37509">
        <ele>1388</ele>
        <time>2022-02-25T16:05:37+01:00</time>
      </trkpt>
      <trkpt lat="42.80283" lon="1.3762">
        <ele>1393</ele>
        <time>2022-02-25T16:08:03+01:00</time>
      </trkpt>
      <trkpt lat="42.80455" lon="1.37523">
        <ele>1382</ele>
        <time>2022-02-25T16:11:36+01:00</time>
      </trkpt>
      <trkpt lat="42.80224" lon="1.37304">
        <ele>1374</ele>
        <time>2022-02-25T16:16:58+01:00</time>
      </trkpt>
      <trkpt lat="42.80495" lon="1.37108">
        <ele>1326</ele>
        <time>2022-02-25T16:22:50+01:00</time>
      </trkpt>
      <trkpt lat="42.80781" lon="1.37136">
        <ele>1307</ele>
        <time>2022-02-25T16:28:19+01:00</time>
      </trkpt>
      <trkpt lat="42.80713" lon="1.3735">
        <ele>1291</ele>
        <time>2022-02-25T16:31:35+01:00</time>
      </trkpt>
      <trkpt lat="42.80928" lon="1.37467">
        <ele>1277</ele>
        <time>2022-02-25T16:36:01+01:00</time>
      </trkpt>
      <trkpt lat="42.80826" lon="1.38352">
        <ele>1303</ele>
        <time>2022-02-25T16:53:01+01:00</time>
      </trkpt>
      <trkpt lat="42.80702" lon="1.38485">
        <ele>1313</ele>
        <time>2022-02-25T16:57:45+01:00</time>
      </trkpt>
      <trkpt lat="42.80808" lon="1.38679">
        <ele>1327</ele>
        <time>2022-02-25T17:03:32+01:00</time>
      </trkpt>
      <trkpt lat="42.80689" lon="1.39174">
        <ele>1369</ele>
        <time>2022-02-25T17:18:01+01:00</time>
      </trkpt>
      <trkpt lat="42.80924" lon="1.39268">
        <ele>1382</ele>
        <time>2022-02-25T17:24:55+01:00</time>
      </trkpt>
      <trkpt lat="42.81114" lon="1.3906">
        <ele>1401</ele>
        <time>2022-02-25T17:32:49+01:00</time>
      </trkpt>
      <trkpt lat="42.81236" lon="1.39354">
        <ele>1420</ele>
        <time>2022-02-25T17:40:48+01:00</time>
      </trkpt>
      <trkpt lat="42.80556" lon="1.39875">
        <ele>1442</ele>
        <time>2022-02-25T17:59:27+01:00</time>
      </trkpt>
      <trkpt lat="42.80725" lon="1.42029">
        <ele>1472</ele>
        <time>2022-02-25T18:34:56+01:00</time>
      </trkpt>
      <trkpt lat="42.80548" lon="1.416">
        <ele>1449</ele>
        <time>2022-02-25T18:41:50+01:00</time>
      </trkpt>
      <trkpt lat="42.80646" lon="1.42062">
        <ele>1412</ele>
        <time>2022-02-25T18:48:34+01:00</time>
      </trkpt>
      <trkpt lat="42.80567" lon="1.42056">
        <ele>1403</ele>
        <time>2022-02-25T18:50:05+01:00</time>
      </trkpt>
      <trkpt lat="42.80523" lon="1.42484">
        <ele>1360</ele>
        <time>2022-02-25T18:56:08+01:00</time>
      </trkpt>
      <trkpt lat="42.80626" lon="1.42341">
        <ele>1356</ele>
        <time>2022-02-25T18:58:56+01:00</time>
      </trkpt>
      <trkpt lat="42.80596" lon="1.42491">
        <ele>1338</ele>
        <time>2022-02-25T19:01:06+01:00</time>
      </trkpt>
      <trkpt lat="42.8068" lon="1.42446">
        <ele>1333</ele>
        <time>2022-02-25T19:02:50+01:00</time>
      </trkpt>
      <trkpt lat="42.80687" lon="1.42846">
        <ele>1305</ele>
        <time>2022-02-25T19:08:26+01:00</time>
      </trkpt>
      <trkpt lat="42.80879" lon="1.4315">
        <ele>1271</ele>
        <time>2022-02-25T19:14:03+01:00</time>
      </trkpt>
      <trkpt lat="42.80197" lon="1.44515">
        <ele>1163</ele>
        <time>2022-02-25T19:37:11+01:00</time>
      </trkpt>
      <trkpt lat="42.7995" lon="1.44701">
        <ele>1135</ele>
        <time>2022-02-25T19:42:34+01:00</time>
      </trkpt>
      <trkpt lat="42.80116" lon="1.44222">
        <ele>1110</ele>
        <time>2022-02-25T19:49:58+01:00</time>
      </trkpt>
      <trkpt lat="42.79181" lon="1.45207">
        <ele>1014</ele>
        <time>2022-02-25T20:12:31+01:00</time>
      </trkpt>
      <trkpt lat="42.78376" lon="1.46607">
        <ele>934</ele>
        <time>2022-02-25T20:37:25+01:00</time>
      </trkpt>
      <trkpt lat="42.77904" lon="1.48008">
        <ele>848</ele>
        <time>2022-02-25T20:59:01+01:00</time>
      </trkpt>
      <trkpt lat="42.77276" lon="1.49076">
        <ele>749</ele>
        <time>2022-02-25T21:18:11+01:00</time>
      </trkpt>
      <trkpt lat="42.76954" lon="1.49348">
        <ele>710</ele>
        <time>2022-02-25T21:25:24+01:00</time>
      </trkpt>
      <trkpt lat="42.76882" lon="1.49808">
        <ele>705</ele>
        <time>2022-02-25T21:32:00+01:00</time>
      </trkpt>
      <trkpt lat="42.76763" lon="1.50112">
        <ele>710</ele>
        <time>2022-02-25T21:37:40+01:00</time>
      </trkpt>
      <trkpt lat="42.77686" lon="1.52327">
        <ele>682</ele>
        <time>2022-02-25T22:13:21+01:00</time>
      </trkpt>
      <trkpt lat="42.78416" lon="1.54742">
        <ele>658</ele>
        <time>2022-02-25T22:49:56+01:00</time>
      </trkpt>
      <trkpt lat="42.78401" lon="1.55998">
        <ele>632</ele>
        <time>2022-02-25T23:07:31+01:00</time>
      </trkpt>
      <trkpt lat="42.7899" lon="1.57233">
        <ele>602</ele>
        <time>2022-02-25T23:28:08+01:00</time>
      </trkpt>
      <trkpt lat="42.79109" lon="1.57757">
        <ele>607</ele>
        <time>2022-02-25T23:36:40+01:00</time>
      </trkpt>
      <trkpt lat="42.79489" lon="1.58475">
        <ele>592</ele>
        <time>2022-02-25T23:49:04+01:00</time>
      </trkpt>
      <trkpt lat="42.80268" lon="1.58973">
        <ele>564</ele>
        <time>2022-02-26T00:05:30+01:00</time>
      </trkpt>
      <trkpt lat="42.81585" lon="1.59172">
        <ele>544</ele>
        <time>2022-02-26T00:30:46+01:00</time>
      </trkpt>
      <trkpt lat="42.82881" lon="1.59109">
        <ele>515</ele>
        <time>2022-02-26T00:55:32+01:00</time>
      </trkpt>
      <trkpt lat="42.83778" lon="1.60421">
        <ele>486</ele>
        <time>2022-02-26T01:20:38+01:00</time>
      </trkpt>
      <trkpt lat="42.84502" lon="1.60098">
        <ele>482</ele>
        <time>2022-02-26T01:35:10+01:00</time>
      </trkpt>
      <trkpt lat="42.84699" lon="1.60617">
        <ele>471</ele>
        <time>2022-02-26T01:43:21+01:00</time>
      </trkpt>
      <trkpt lat="42.85732" lon="1.60099">
        <ele>465</ele>
        <time>2022-02-26T02:04:22+01:00</time>
      </trkpt>
      <trkpt lat="42.86424" lon="1.60846">
        <ele>479</ele>
        <time>2022-02-26T02:23:36+01:00</time>
      </trkpt>
      <trkpt lat="42.86547" lon="1.61318">
        <ele>472</ele>
        <time>2022-02-26T02:30:36+01:00</time>
      </trkpt>
      <trkpt lat="42.86575" lon="1.61467">
        <ele>482</ele>
        <time>2022-02-26T02:34:29+01:00</time>
      </trkpt>
      <trkpt lat="42.86438" lon="1.61622">
        <ele>491</ele>
        <time>2022-02-26T02:39:25+01:00</time>
      </trkpt>
      <trkpt lat="42.8639" lon="1.61926">
        <ele>491</ele>
        <time>2022-02-26T02:43:46+01:00</time>
      </trkpt>
      <trkpt lat="42.86485" lon="1.62055">
        <ele>491</ele>
        <time>2022-02-26T02:46:19+01:00</time>
      </trkpt>
      <trkpt lat="42.85807" lon="1.63561">
        <ele>527</ele>
        <time>2022-02-26T03:17:12+01:00</time>
      </trkpt>
      <trkpt lat="42.85439" lon="1.6442">
        <ele>553</ele>
        <time>2022-02-26T03:35:35+01:00</time>
      </trkpt>
      <trkpt lat="42.8537" lon="1.64763">
        <ele>566</ele>
        <time>2022-02-26T03:42:47+01:00</time>
      </trkpt>
      <trkpt lat="42.84658" lon="1.65054">
        <ele>613</ele>
        <time>2022-02-26T04:05:02+01:00</time>
      </trkpt>
      <trkpt lat="42.84956" lon="1.65413">
        <ele>656</ele>
        <time>2022-02-26T04:20:00+01:00</time>
      </trkpt>
      <trkpt lat="42.84919" lon="1.65757">
        <ele>661</ele>
        <time>2022-02-26T04:25:43+01:00</time>
      </trkpt>
      <trkpt lat="42.84337" lon="1.66274">
        <ele>739</ele>
        <time>2022-02-26T04:52:20+01:00</time>
      </trkpt>
      <trkpt lat="42.84265" lon="1.6663">
        <ele>760</ele>
        <time>2022-02-26T05:01:07+01:00</time>
      </trkpt>
      <trkpt lat="42.84526" lon="1.66631">
        <ele>802</ele>
        <time>2022-02-26T05:13:18+01:00</time>
      </trkpt>
      <trkpt lat="42.84052" lon="1.67025">
        <ele>853</ele>
        <time>2022-02-26T05:32:38+01:00</time>
      </trkpt>
      <trkpt lat="42.84023" lon="1.67182">
        <ele>861</ele>
        <time>2022-02-26T05:36:16+01:00</time>
      </trkpt>
      <trkpt lat="42.82819" lon="1.67846">
        <ele>883</ele>
        <time>2022-02-26T06:04:50+01:00</time>
      </trkpt>
      <trkpt lat="42.81139" lon="1.69572">
        <ele>872</ele>
        <time>2022-02-26T06:44:59+01:00</time>
      </trkpt>
      <trkpt lat="42.80996" lon="1.70232">
        <ele>882</ele>
        <time>2022-02-26T06:56:20+01:00</time>
      </trkpt>
      <trkpt lat="42.8028" lon="1.70133">
        <ele>882</ele>
        <time>2022-02-26T07:10:04+01:00</time>
      </trkpt>
      <trkpt lat="42.79898" lon="1.70726">
        <ele>905</ele>
        <time>2022-02-26T07:25:03+01:00</time>
      </trkpt>
      <trkpt lat="42.79902" lon="1.71605">
        <ele>898</ele>
        <time>2022-02-26T07:37:22+01:00</time>
      </trkpt>
      <trkpt lat="42.79272" lon="1.71919">
        <ele>914</ele>
        <time>2022-02-26T07:52:55+01:00</time>
      </trkpt>
      <trkpt lat="42.78854" lon="1.74607">
        <ele>927</ele>
        <time>2022-02-26T08:33:37+01:00</time>
      </trkpt>
      <trkpt lat="42.78387" lon="1.75605">
        <ele>880</ele>
        <time>2022-02-26T08:50:12+01:00</time>
      </trkpt>
      <trkpt lat="42.77934" lon="1.76114">
        <ele>901</ele>
        <time>2022-02-26T09:05:00+01:00</time>
      </trkpt>
      <trkpt lat="42.77641" lon="1.75442">
        <ele>902</ele>
        <time>2022-02-26T09:16:07+01:00</time>
      </trkpt>
      <trkpt lat="42.76494" lon="1.78184">
        <ele>830</ele>
        <time>2022-02-26T10:00:19+01:00</time>
      </trkpt>
      <trkpt lat="42.76871" lon="1.79583">
        <ele>834</ele>
        <time>2022-02-26T10:21:53+01:00</time>
      </trkpt>
      <trkpt lat="42.76759" lon="1.81594">
        <ele>906</ele>
        <time>2022-02-26T11:02:28+01:00</time>
      </trkpt>
      <trkpt lat="42.76419" lon="1.80736">
        <ele>961</ele>
        <time>2022-02-26T11:25:33+01:00</time>
      </trkpt>
      <trkpt lat="42.76355" lon="1.81247">
        <ele>960</ele>
        <time>2022-02-26T11:32:49+01:00</time>
      </trkpt>
      <trkpt lat="42.76168" lon="1.80485">
        <ele>1011</ele>
        <time>2022-02-26T11:52:50+01:00</time>
      </trkpt>
      <trkpt lat="42.76378" lon="1.80034">
        <ele>1029</ele>
        <time>2022-02-26T12:03:24+01:00</time>
      </trkpt>
      <trkpt lat="42.75875" lon="1.79414">
        <ele>1051</ele>
        <time>2022-02-26T12:20:07+01:00</time>
      </trkpt>
      <trkpt lat="42.75217" lon="1.78661">
        <ele>1017</ele>
        <time>2022-02-26T12:36:31+01:00</time>
      </trkpt>
      <trkpt lat="42.75521" lon="1.78496">
        <ele>992</ele>
        <time>2022-02-26T12:42:46+01:00</time>
      </trkpt>
      <trkpt lat="42.74549" lon="1.79373">
        <ele>812</ele>
        <time>2022-02-26T13:05:01+01:00</time>
      </trkpt>
      <trkpt lat="42.72895" lon="1.8267">
        <ele>703</ele>
        <time>2022-02-26T14:00:58+01:00</time>
      </trkpt>
      <trkpt lat="42.724" lon="1.83374">
        <ele>700</ele>
        <time>2022-02-26T14:14:38+01:00</time>
      </trkpt>
      <trkpt lat="42.71975" lon="1.84298">
        <ele>737</ele>
        <time>2022-02-26T14:36:15+01:00</time>
      </trkpt>
      <trkpt lat="42.72333" lon="1.83976">
        <ele>766</ele>
        <time>2022-02-26T14:49:24+01:00</time>
      </trkpt>
      <trkpt lat="42.7213" lon="1.84532">
        <ele>805</ele>
        <time>2022-02-26T15:04:47+01:00</time>
      </trkpt>
      <trkpt lat="42.72305" lon="1.84375">
        <ele>824</ele>
        <time>2022-02-26T15:12:03+01:00</time>
      </trkpt>
      <trkpt lat="42.72319" lon="1.84182">
        <ele>815</ele>
        <time>2022-02-26T15:14:46+01:00</time>
      </trkpt>
      <trkpt lat="42.72439" lon="1.84046">
        <ele>841</ele>
        <time>2022-02-26T15:22:11+01:00</time>
      </trkpt>
      <trkpt lat="42.72368" lon="1.8443">
        <ele>853</ele>
        <time>2022-02-26T15:29:47+01:00</time>
      </trkpt>
      <trkpt lat="42.72242" lon="1.85127">
        <ele>907</ele>
        <time>2022-02-26T15:49:07+01:00</time>
      </trkpt>
      <trkpt lat="42.7227" lon="1.85787">
        <ele>954</ele>
        <time>2022-02-26T16:06:26+01:00</time>
      </trkpt>
      <trkpt lat="42.72014" lon="1.8611">
        <ele>962</ele>
        <time>2022-02-26T16:14:28+01:00</time>
      </trkpt>
      <trkpt lat="42.71973" lon="1.86926">
        <ele>1005</ele>
        <time>2022-02-26T16:33:18+01:00</time>
      </trkpt>
      <trkpt lat="42.71912" lon="1.87608">
        <ele>1022</ele>
        <time>2022-02-26T16:45:51+01:00</time>
      </trkpt>
      <trkpt lat="42.72548" lon="1.88909">
        <ele>1082</ele>
        <time>2022-02-26T17:18:03+01:00</time>
      </trkpt>
      <trkpt lat="42.72375" lon="1.8968">
        <ele>1107</ele>
        <time>2022-02-26T17:33:38+01:00</time>
      </trkpt>
      <trkpt lat="42.71867" lon="1.90852">
        <ele>1153</ele>
        <time>2022-02-26T18:00:36+01:00</time>
      </trkpt>
      <trkpt lat="42.71647" lon="1.9288">
        <ele>1314</ele>
        <time>2022-02-26T18:56:56+01:00</time>
      </trkpt>
      <trkpt lat="42.71898" lon="1.93203">
        <ele>1348</ele>
        <time>2022-02-26T19:09:21+01:00</time>
      </trkpt>
      <trkpt lat="42.7189" lon="1.92983">
        <ele>1364</ele>
        <time>2022-02-26T19:15:11+01:00</time>
      </trkpt>
      <trkpt lat="42.7313" lon="1.95407">
        <ele>1510</ele>
        <time>2022-02-26T20:21:37+01:00</time>
      </trkpt>
      <trkpt lat="42.72762" lon="1.95945">
        <ele>1570</ele>
        <time>2022-02-26T20:42:12+01:00</time>
      </trkpt>
      <trkpt lat="42.73015" lon="1.95824">
        <ele>1585</ele>
        <time>2022-02-26T20:49:53+01:00</time>
      </trkpt>
      <trkpt lat="42.72716" lon="1.96177">
        <ele>1630</ele>
        <time>2022-02-26T21:05:09+01:00</time>
      </trkpt>
      <trkpt lat="42.72893" lon="1.96144">
        <ele>1672</ele>
        <time>2022-02-26T21:15:46+01:00</time>
      </trkpt>
      <trkpt lat="42.72684" lon="1.96448">
        <ele>1678</ele>
        <time>2022-02-26T21:22:38+01:00</time>
      </trkpt>
      <trkpt lat="42.72979" lon="1.96179">
        <ele>1735</ele>
        <time>2022-02-26T21:39:11+01:00</time>
      </trkpt>
      <trkpt lat="42.72825" lon="1.96513">
        <ele>1741</ele>
        <time>2022-02-26T21:45:44+01:00</time>
      </trkpt>
      <trkpt lat="42.73393" lon="1.98364">
        <ele>1902</ele>
        <time>2022-02-26T22:41:27+01:00</time>
      </trkpt>
      <trkpt lat="42.73307" lon="1.98688">
        <ele>1935</ele>
        <time>2022-02-26T22:51:56+01:00</time>
      </trkpt>
      <trkpt lat="42.73165" lon="1.98869">
        <ele>1968</ele>
        <time>2022-02-26T23:01:18+01:00</time>
      </trkpt>
      <trkpt lat="42.73458" lon="1.9937">
        <ele>1993</ele>
        <time>2022-02-26T23:14:33+01:00</time>
      </trkpt>
      <trkpt lat="42.73552" lon="1.99902">
        <ele>1966</ele>
        <time>2022-02-26T23:22:13+01:00</time>
      </trkpt>
      <trkpt lat="42.73593" lon="2.00195">
        <ele>1928</ele>
        <time>2022-02-26T23:26:24+01:00</time>
      </trkpt>
      <trkpt lat="42.73308" lon="2.00319">
        <ele>1898</ele>
        <time>2022-02-26T23:32:07+01:00</time>
      </trkpt>
      <trkpt lat="42.73365" lon="2.00123">
        <ele>1864</ele>
        <time>2022-02-26T23:35:04+01:00</time>
      </trkpt>
      <trkpt lat="42.73176" lon="2.00368">
        <ele>1842</ele>
        <time>2022-02-26T23:40:03+01:00</time>
      </trkpt>
      <trkpt lat="42.73179" lon="1.99947">
        <ele>1814</ele>
        <time>2022-02-26T23:45:57+01:00</time>
      </trkpt>
      <trkpt lat="42.73085" lon="2.00289">
        <ele>1781</ele>
        <time>2022-02-26T23:51:05+01:00</time>
      </trkpt>
      <trkpt lat="42.73026" lon="1.99979">
        <ele>1744</ele>
        <time>2022-02-26T23:55:35+01:00</time>
      </trkpt>
      <trkpt lat="42.72958" lon="2.00468">
        <ele>1714</ele>
        <time>2022-02-27T00:02:34+01:00</time>
      </trkpt>
      <trkpt lat="42.72948" lon="2.00216">
        <ele>1682</ele>
        <time>2022-02-27T00:06:06+01:00</time>
      </trkpt>
      <trkpt lat="42.72844" lon="2.00255">
        <ele>1638</ele>
        <time>2022-02-27T00:08:10+01:00</time>
      </trkpt>
      <trkpt lat="42.72916" lon="2.02194">
        <ele>1529</ele>
        <time>2022-02-27T00:35:23+01:00</time>
      </trkpt>
      <trkpt lat="42.72864" lon="2.02064">
        <ele>1513</ele>
        <time>2022-02-27T00:37:28+01:00</time>
      </trkpt>
      <trkpt lat="42.72582" lon="2.02805">
        <ele>1441</ele>
        <time>2022-02-27T00:49:10+01:00</time>
      </trkpt>
      <trkpt lat="42.72553" lon="2.02718">
        <ele>1425</ele>
        <time>2022-02-27T00:50:31+01:00</time>
      </trkpt>
      <trkpt lat="42.72356" lon="2.0327">
        <ele>1388</ele>
        <time>2022-02-27T00:59:07+01:00</time>
      </trkpt>
      <trkpt lat="42.72666" lon="2.04076">
        <ele>1339</ele>
        <time>2022-02-27T01:11:52+01:00</time>
      </trkpt>
      <trkpt lat="42.72368" lon="2.03907">
        <ele>1295</ele>
        <time>2022-02-27T01:18:02+01:00</time>
      </trkpt>
      <trkpt lat="42.72787" lon="2.04715">
        <ele>1212</ele>
        <time>2022-02-27T01:31:54+01:00</time>
      </trkpt>
      <trkpt lat="42.73039" lon="2.05458">
        <ele>1160</ele>
        <time>2022-02-27T01:43:22+01:00</time>
      </trkpt>
      <trkpt lat="42.72982" lon="2.05599">
        <ele>1124</ele>
        <time>2022-02-27T01:45:38+01:00</time>
      </trkpt>
      <trkpt lat="42.72926" lon="2.05374">
        <ele>1150</ele>
        <time>2022-02-27T01:53:26+01:00</time>
      </trkpt>
      <trkpt lat="42.7295" lon="2.05858">
        <ele>1113</ele>
        <time>2022-02-27T02:00:14+01:00</time>
      </trkpt>
      <trkpt lat="42.72789" lon="2.07421">
        <ele>1020</ele>
        <time>2022-02-27T02:22:21+01:00</time>
      </trkpt>
      <trkpt lat="42.72245" lon="2.07788">
        <ele>1023</ele>
        <time>2022-02-27T02:34:27+01:00</time>
      </trkpt>
      <trkpt lat="42.71917" lon="2.07696">
        <ele>1042</ele>
        <time>2022-02-27T02:44:06+01:00</time>
      </trkpt>
      <trkpt lat="42.71696" lon="2.08126">
        <ele>1050</ele>
        <time>2022-02-27T02:52:50+01:00</time>
      </trkpt>
      <trkpt lat="42.71243" lon="2.08146">
        <ele>1083</ele>
        <time>2022-02-27T03:07:09+01:00</time>
      </trkpt>
      <trkpt lat="42.70904" lon="2.08672">
        <ele>1109</ele>
        <time>2022-02-27T03:21:25+01:00</time>
      </trkpt>
      <trkpt lat="42.7019" lon="2.09096">
        <ele>1158</ele>
        <time>2022-02-27T03:44:40+01:00</time>
      </trkpt>
      <trkpt lat="42.69512" lon="2.0965">
        <ele>1211</ele>
        <time>2022-02-27T04:08:51+01:00</time>
      </trkpt>
      <trkpt lat="42.6985" lon="2.0966">
        <ele>1214</ele>
        <time>2022-02-27T04:15:49+01:00</time>
      </trkpt>
      <trkpt lat="42.69813" lon="2.09842">
        <ele>1229</ele>
        <time>2022-02-27T04:21:03+01:00</time>
      </trkpt>
      <trkpt lat="42.69614" lon="2.0992">
        <ele>1246</ele>
        <time>2022-02-27T04:27:55+01:00</time>
      </trkpt>
      <trkpt lat="42.69184" lon="2.09941">
        <ele>1274</ele>
        <time>2022-02-27T04:40:56+01:00</time>
      </trkpt>
      <trkpt lat="42.68983" lon="2.10111">
        <ele>1284</ele>
        <time>2022-02-27T04:47:10+01:00</time>
      </trkpt>
      <trkpt lat="42.69091" lon="2.10176">
        <ele>1310</ele>
        <time>2022-02-27T04:53:52+01:00</time>
      </trkpt>
      <trkpt lat="42.68941" lon="2.10176">
        <ele>1313</ele>
        <time>2022-02-27T04:57:14+01:00</time>
      </trkpt>
      <trkpt lat="42.68379" lon="2.11426">
        <ele>1415</ele>
        <time>2022-02-27T05:35:17+01:00</time>
      </trkpt>
      <trkpt lat="42.6834" lon="2.12462">
        <ele>1470</ele>
        <time>2022-02-27T05:59:15+01:00</time>
      </trkpt>
      <trkpt lat="42.68187" lon="2.12574">
        <ele>1476</ele>
        <time>2022-02-27T06:03:36+01:00</time>
      </trkpt>
      <trkpt lat="42.68188" lon="2.12711">
        <ele>1471</ele>
        <time>2022-02-27T06:05:31+01:00</time>
      </trkpt>
      <trkpt lat="42.67532" lon="2.13659">
        <ele>1421</ele>
        <time>2022-02-27T06:23:47+01:00</time>
      </trkpt>
      <trkpt lat="42.66905" lon="2.13606">
        <ele>1423</ele>
        <time>2022-02-27T06:36:07+01:00</time>
      </trkpt>
      <trkpt lat="42.66581" lon="2.13288">
        <ele>1424</ele>
        <time>2022-02-27T06:43:55+01:00</time>
      </trkpt>
      <trkpt lat="42.66654" lon="2.13048">
        <ele>1432</ele>
        <time>2022-02-27T06:48:56+01:00</time>
      </trkpt>
      <trkpt lat="42.66009" lon="2.12389">
        <ele>1383</ele>
        <time>2022-02-27T07:04:19+01:00</time>
      </trkpt>
      <trkpt lat="42.65147" lon="2.12292">
        <ele>1424</ele>
        <time>2022-02-27T07:27:51+01:00</time>
      </trkpt>
      <trkpt lat="42.64779" lon="2.11655">
        <ele>1446</ele>
        <time>2022-02-27T07:43:00+01:00</time>
      </trkpt>
      <trkpt lat="42.64407" lon="2.11152">
        <ele>1450</ele>
        <time>2022-02-27T07:53:42+01:00</time>
      </trkpt>
      <trkpt lat="42.63788" lon="2.11693">
        <ele>1453</ele>
        <time>2022-02-27T08:08:15+01:00</time>
      </trkpt>
      <trkpt lat="42.63243" lon="2.11696">
        <ele>1463</ele>
        <time>2022-02-27T08:20:21+01:00</time>
      </trkpt>
      <trkpt lat="42.62133" lon="2.11079">
        <ele>1479</ele>
        <time>2022-02-27T08:45:59+01:00</time>
      </trkpt>
      <trkpt lat="42.61461" lon="2.10328">
        <ele>1500</ele>
        <time>2022-02-27T09:06:11+01:00</time>
      </trkpt>
      <trkpt lat="42.61311" lon="2.10354">
        <ele>1508</ele>
        <time>2022-02-27T09:10:26+01:00</time>
      </trkpt>
      <trkpt lat="42.61205" lon="2.10544">
        <ele>1519</ele>
        <time>2022-02-27T09:15:40+01:00</time>
      </trkpt>
      <trkpt lat="42.61127" lon="2.10362">
        <ele>1529</ele>
        <time>2022-02-27T09:20:20+01:00</time>
      </trkpt>
      <trkpt lat="42.60424" lon="2.10213">
        <ele>1552</ele>
        <time>2022-02-27T09:37:51+01:00</time>
      </trkpt>
      <trkpt lat="42.59363" lon="2.09731">
        <ele>1583</ele>
        <time>2022-02-27T10:04:31+01:00</time>
      </trkpt>
      <trkpt lat="42.57726" lon="2.07611">
        <ele>1625</ele>
        <time>2022-02-27T10:54:52+01:00</time>
      </trkpt>
      <trkpt lat="42.57672" lon="2.07022">
        <ele>1655</ele>
        <time>2022-02-27T11:08:21+01:00</time>
      </trkpt>
      <trkpt lat="42.57421" lon="2.06835">
        <ele>1684</ele>
        <time>2022-02-27T11:18:47+01:00</time>
      </trkpt>
      <trkpt lat="42.56986" lon="2.074">
        <ele>1668</ele>
        <time>2022-02-27T11:30:17+01:00</time>
      </trkpt>
      <trkpt lat="42.56125" lon="2.07503">
        <ele>1685</ele>
        <time>2022-02-27T11:49:41+01:00</time>
      </trkpt>
      <trkpt lat="42.55265" lon="2.08171">
        <ele>1707</ele>
        <time>2022-02-27T12:12:22+01:00</time>
      </trkpt>
      <trkpt lat="42.54267" lon="2.09967">
        <ele>1730</ele>
        <time>2022-02-27T12:47:56+01:00</time>
      </trkpt>
      <trkpt lat="42.52625" lon="2.10717">
        <ele>1707</ele>
        <time>2022-02-27T13:21:00+01:00</time>
      </trkpt>
      <trkpt lat="42.5155" lon="2.11415">
        <ele>1617</ele>
        <time>2022-02-27T13:43:45+01:00</time>
      </trkpt>
      <trkpt lat="42.51403" lon="2.1107">
        <ele>1590</ele>
        <time>2022-02-27T13:49:21+01:00</time>
      </trkpt>
      <trkpt lat="42.51112" lon="2.11451">
        <ele>1597</ele>
        <time>2022-02-27T13:58:17+01:00</time>
      </trkpt>
      <trkpt lat="42.50751" lon="2.11579">
        <ele>1574</ele>
        <time>2022-02-27T14:05:24+01:00</time>
      </trkpt>
      <trkpt lat="42.51194" lon="2.11462">
        <ele>1592</ele>
        <time>2022-02-27T14:17:06+01:00</time>
      </trkpt>
      <trkpt lat="42.51392" lon="2.11026">
        <ele>1597</ele>
        <time>2022-02-27T14:25:10+01:00</time>
      </trkpt>
      <trkpt lat="42.51588" lon="2.1144">
        <ele>1620</ele>
        <time>2022-02-27T14:36:02+01:00</time>
      </trkpt>
      <trkpt lat="42.52436" lon="2.12216">
        <ele>1647</ele>
        <time>2022-02-27T15:00:11+01:00</time>
      </trkpt>
      <trkpt lat="42.52886" lon="2.12408">
        <ele>1668</ele>
        <time>2022-02-27T15:12:46+01:00</time>
      </trkpt>
      <trkpt lat="42.52993" lon="2.12709">
        <ele>1695</ele>
        <time>2022-02-27T15:22:06+01:00</time>
      </trkpt>
      <trkpt lat="42.55291" lon="2.11128">
        <ele>1685</ele>
        <time>2022-02-27T16:11:16+01:00</time>
      </trkpt>
      <trkpt lat="42.55497" lon="2.10591">
        <ele>1651</ele>
        <time>2022-02-27T16:19:46+01:00</time>
      </trkpt>
      <trkpt lat="42.57396" lon="2.11336">
        <ele>1552</ele>
        <time>2022-02-27T16:57:30+01:00</time>
      </trkpt>
      <trkpt lat="42.58015" lon="2.11479">
        <ele>1511</ele>
        <time>2022-02-27T17:09:28+01:00</time>
      </trkpt>
      <trkpt lat="42.58138" lon="2.11522">
        <ele>1505</ele>
        <time>2022-02-27T17:11:53+01:00</time>
      </trkpt>
      <trkpt lat="42.58437" lon="2.11796">
        <ele>1500</ele>
        <time>2022-02-27T17:18:46+01:00</time>
      </trkpt>
      <trkpt lat="42.58768" lon="2.12395">
        <ele>1542</ele>
        <time>2022-02-27T17:36:30+01:00</time>
      </trkpt>
      <trkpt lat="42.59479" lon="2.1305">
        <ele>1616</ele>
        <time>2022-02-27T18:05:35+01:00</time>
      </trkpt>
      <trkpt lat="42.60371" lon="2.13441">
        <ele>1676</ele>
        <time>2022-02-27T18:33:45+01:00</time>
      </trkpt>
      <trkpt lat="42.60246" lon="2.14249">
        <ele>1684</ele>
        <time>2022-02-27T18:46:43+01:00</time>
      </trkpt>
      <trkpt lat="42.60418" lon="2.14648">
        <ele>1671</ele>
        <time>2022-02-27T18:53:13+01:00</time>
      </trkpt>
      <trkpt lat="42.60193" lon="2.14489">
        <ele>1640</ele>
        <time>2022-02-27T18:58:04+01:00</time>
      </trkpt>
      <trkpt lat="42.59956" lon="2.15619">
        <ele>1562</ele>
        <time>2022-02-27T19:14:34+01:00</time>
      </trkpt>
      <trkpt lat="42.59553" lon="2.16466">
        <ele>1505</ele>
        <time>2022-02-27T19:28:45+01:00</time>
      </trkpt>
      <trkpt lat="42.58877" lon="2.17205">
        <ele>1437</ele>
        <time>2022-02-27T19:45:18+01:00</time>
      </trkpt>
      <trkpt lat="42.58565" lon="2.17547">
        <ele>1412</ele>
        <time>2022-02-27T19:52:56+01:00</time>
      </trkpt>
      <trkpt lat="42.58596" lon="2.17853">
        <ele>1400</ele>
        <time>2022-02-27T19:57:16+01:00</time>
      </trkpt>
      <trkpt lat="42.58828" lon="2.18055">
        <ele>1379</ele>
        <time>2022-02-27T20:02:32+01:00</time>
      </trkpt>
      <trkpt lat="42.58578" lon="2.18083">
        <ele>1361</ele>
        <time>2022-02-27T20:07:19+01:00</time>
      </trkpt>
      <trkpt lat="42.58606" lon="2.18118">
        <ele>1352</ele>
        <time>2022-02-27T20:08:03+01:00</time>
      </trkpt>
      <trkpt lat="42.58657" lon="2.18155">
        <ele>1349</ele>
        <time>2022-02-27T20:09:09+01:00</time>
      </trkpt>
      <trkpt lat="42.58634" lon="2.1825">
        <ele>1334</ele>
        <time>2022-02-27T20:10:33+01:00</time>
      </trkpt>
      <trkpt lat="42.58714" lon="2.18296">
        <ele>1330</ele>
        <time>2022-02-27T20:12:12+01:00</time>
      </trkpt>
      <trkpt lat="42.58801" lon="2.18283">
        <ele>1327</ele>
        <time>2022-02-27T20:13:52+01:00</time>
      </trkpt>
      <trkpt lat="42.58984" lon="2.18565">
        <ele>1313</ele>
        <time>2022-02-27T20:19:09+01:00</time>
      </trkpt>
      <trkpt lat="42.59603" lon="2.17956">
        <ele>1274</ele>
        <time>2022-02-27T20:33:44+01:00</time>
      </trkpt>
      <trkpt lat="42.59243" lon="2.18519">
        <ele>1239</ele>
        <time>2022-02-27T20:44:13+01:00</time>
      </trkpt>
      <trkpt lat="42.59431" lon="2.18612">
        <ele>1236</ele>
        <time>2022-02-27T20:48:03+01:00</time>
      </trkpt>
      <trkpt lat="42.59234" lon="2.18665">
        <ele>1223</ele>
        <time>2022-02-27T20:51:53+01:00</time>
      </trkpt>
      <trkpt lat="42.59143" lon="2.18931">
        <ele>1210</ele>
        <time>2022-02-27T20:55:59+01:00</time>
      </trkpt>
      <trkpt lat="42.589" lon="2.19048">
        <ele>1214</ele>
        <time>2022-02-27T21:01:36+01:00</time>
      </trkpt>
      <trkpt lat="42.58823" lon="2.18813">
        <ele>1162</ele>
        <time>2022-02-27T21:05:14+01:00</time>
      </trkpt>
      <trkpt lat="42.58597" lon="2.18989">
        <ele>1163</ele>
        <time>2022-02-27T21:10:22+01:00</time>
      </trkpt>
      <trkpt lat="42.58394" lon="2.19671">
        <ele>1152</ele>
        <time>2022-02-27T21:20:42+01:00</time>
      </trkpt>
      <trkpt lat="42.58328" lon="2.19564">
        <ele>1155</ele>
        <time>2022-02-27T21:23:10+01:00</time>
      </trkpt>
      <trkpt lat="42.58144" lon="2.19682">
        <ele>1128</ele>
        <time>2022-02-27T21:27:03+01:00</time>
      </trkpt>
      <trkpt lat="42.582" lon="2.19849">
        <ele>1135</ele>
        <time>2022-02-27T21:30:50+01:00</time>
      </trkpt>
      <trkpt lat="42.57956" lon="2.19899">
        <ele>1136</ele>
        <time>2022-02-27T21:35:43+01:00</time>
      </trkpt>
      <trkpt lat="42.57821" lon="2.20092">
        <ele>1127</ele>
        <time>2022-02-27T21:39:28+01:00</time>
      </trkpt>
      <trkpt lat="42.57814" lon="2.20379">
        <ele>1128</ele>
        <time>2022-02-27T21:43:40+01:00</time>
      </trkpt>
      <trkpt lat="42.57739" lon="2.20223">
        <ele>1104</ele>
        <time>2022-02-27T21:46:17+01:00</time>
      </trkpt>
      <trkpt lat="42.56641" lon="2.20721">
        <ele>1091</ele>
        <time>2022-02-27T22:08:22+01:00</time>
      </trkpt>
      <trkpt lat="42.56525" lon="2.20888">
        <ele>1074</ele>
        <time>2022-02-27T22:11:36+01:00</time>
      </trkpt>
      <trkpt lat="42.5637" lon="2.20784">
        <ele>1077</ele>
        <time>2022-02-27T22:15:24+01:00</time>
      </trkpt>
      <trkpt lat="42.5629" lon="2.21475">
        <ele>1054</ele>
        <time>2022-02-27T22:25:14+01:00</time>
      </trkpt>
      <trkpt lat="42.56264" lon="2.21697">
        <ele>1042</ele>
        <time>2022-02-27T22:28:24+01:00</time>
      </trkpt>
      <trkpt lat="42.55979" lon="2.21957">
        <ele>1038</ele>
        <time>2022-02-27T22:34:57+01:00</time>
      </trkpt>
      <trkpt lat="42.561" lon="2.22718">
        <ele>987</ele>
        <time>2022-02-27T22:45:54+01:00</time>
      </trkpt>
      <trkpt lat="42.56424" lon="2.22856">
        <ele>999</ele>
        <time>2022-02-27T22:54:26+01:00</time>
      </trkpt>
      <trkpt lat="42.56279" lon="2.23033">
        <ele>994</ele>
        <time>2022-02-27T22:58:08+01:00</time>
      </trkpt>
      <trkpt lat="42.55915" lon="2.23045">
        <ele>966</ele>
        <time>2022-02-27T23:05:05+01:00</time>
      </trkpt>
      <trkpt lat="42.55936" lon="2.23419">
        <ele>946</ele>
        <time>2022-02-27T23:10:21+01:00</time>
      </trkpt>
      <trkpt lat="42.55731" lon="2.23573">
        <ele>924</ele>
        <time>2022-02-27T23:14:49+01:00</time>
      </trkpt>
      <trkpt lat="42.5564" lon="2.23998">
        <ele>895</ele>
        <time>2022-02-27T23:21:03+01:00</time>
      </trkpt>
      <trkpt lat="42.55691" lon="2.24588">
        <ele>860</ele>
        <time>2022-02-27T23:29:24+01:00</time>
      </trkpt>
      <trkpt lat="42.5536" lon="2.24648">
        <ele>810</ele>
        <time>2022-02-27T23:35:46+01:00</time>
      </trkpt>
      <trkpt lat="42.55332" lon="2.25051">
        <ele>826</ele>
        <time>2022-02-27T23:44:12+01:00</time>
      </trkpt>
      <trkpt lat="42.55297" lon="2.25231">
        <ele>806</ele>
        <time>2022-02-27T23:46:49+01:00</time>
      </trkpt>
      <trkpt lat="42.55349" lon="2.2556">
        <ele>789</ele>
        <time>2022-02-27T23:51:32+01:00</time>
      </trkpt>
      <trkpt lat="42.55557" lon="2.25899">
        <ele>764</ele>
        <time>2022-02-27T23:57:45+01:00</time>
      </trkpt>
      <trkpt lat="42.56393" lon="2.25686">
        <ele>710</ele>
        <time>2022-02-28T00:14:00+01:00</time>
      </trkpt>
      <trkpt lat="42.55686" lon="2.26137">
        <ele>673</ele>
        <time>2022-02-28T00:28:55+01:00</time>
      </trkpt>
      <trkpt lat="42.55473" lon="2.26275">
        <ele>647</ele>
        <time>2022-02-28T00:33:25+01:00</time>
      </trkpt>
      <trkpt lat="42.55381" lon="2.26577">
        <ele>640</ele>
        <time>2022-02-28T00:38:01+01:00</time>
      </trkpt>
      <trkpt lat="42.55332" lon="2.26759">
        <ele>621</ele>
        <time>2022-02-28T00:40:45+01:00</time>
      </trkpt>
      <trkpt lat="42.55458" lon="2.26883">
        <ele>629</ele>
        <time>2022-02-28T00:45:06+01:00</time>
      </trkpt>
      <trkpt lat="42.55548" lon="2.27148">
        <ele>624</ele>
        <time>2022-02-28T00:49:12+01:00</time>
      </trkpt>
      <trkpt lat="42.55607" lon="2.2776">
        <ele>619</ele>
        <time>2022-02-28T00:57:53+01:00</time>
      </trkpt>
      <trkpt lat="42.55801" lon="2.28182">
        <ele>620</ele>
        <time>2022-02-28T01:05:02+01:00</time>
      </trkpt>
      <trkpt lat="42.56166" lon="2.2896">
        <ele>597</ele>
        <time>2022-02-28T01:18:00+01:00</time>
      </trkpt>
      <trkpt lat="42.56162" lon="2.29324">
        <ele>593</ele>
        <time>2022-02-28T01:23:07+01:00</time>
      </trkpt>
      <trkpt lat="42.56118" lon="2.2967">
        <ele>575</ele>
        <time>2022-02-28T01:28:03+01:00</time>
      </trkpt>
      <trkpt lat="42.56141" lon="2.30101">
        <ele>575</ele>
        <time>2022-02-28T01:34:08+01:00</time>
      </trkpt>
      <trkpt lat="42.56118" lon="2.3044">
        <ele>563</ele>
        <time>2022-02-28T01:38:55+01:00</time>
      </trkpt>
      <trkpt lat="42.56173" lon="2.30779">
        <ele>564</ele>
        <time>2022-02-28T01:43:58+01:00</time>
      </trkpt>
      <trkpt lat="42.5623" lon="2.30866">
        <ele>562</ele>
        <time>2022-02-28T01:45:36+01:00</time>
      </trkpt>
      <trkpt lat="42.56246" lon="2.3107">
        <ele>540</ele>
        <time>2022-02-28T01:48:29+01:00</time>
      </trkpt>
      <trkpt lat="42.56196" lon="2.31138">
        <ele>543</ele>
        <time>2022-02-28T01:50:21+01:00</time>
      </trkpt>
      <trkpt lat="42.56095" lon="2.30906">
        <ele>544</ele>
        <time>2022-02-28T01:54:19+01:00</time>
      </trkpt>
      <trkpt lat="42.56006" lon="2.30905">
        <ele>562</ele>
        <time>2022-02-28T01:59:07+01:00</time>
      </trkpt>
      <trkpt lat="42.56045" lon="2.31013">
        <ele>565</ele>
        <time>2022-02-28T02:01:19+01:00</time>
      </trkpt>
      <trkpt lat="42.5602" lon="2.31074">
        <ele>578</ele>
        <time>2022-02-28T02:04:31+01:00</time>
      </trkpt>
      <trkpt lat="42.56121" lon="2.31333">
        <ele>590</ele>
        <time>2022-02-28T02:10:41+01:00</time>
      </trkpt>
      <trkpt lat="42.56304" lon="2.31564">
        <ele>601</ele>
        <time>2022-02-28T02:17:20+01:00</time>
      </trkpt>
      <trkpt lat="42.5605" lon="2.31695">
        <ele>629</ele>
        <time>2022-02-28T02:27:18+01:00</time>
      </trkpt>
      <trkpt lat="42.55816" lon="2.31894">
        <ele>624</ele>
        <time>2022-02-28T02:32:35+01:00</time>
      </trkpt>
      <trkpt lat="42.5574" lon="2.31908">
        <ele>635</ele>
        <time>2022-02-28T02:35:56+01:00</time>
      </trkpt>
      <trkpt lat="42.55742" lon="2.32022">
        <ele>622</ele>
        <time>2022-02-28T02:37:32+01:00</time>
      </trkpt>
      <trkpt lat="42.55682" lon="2.3211">
        <ele>621</ele>
        <time>2022-02-28T02:39:12+01:00</time>
      </trkpt>
      <trkpt lat="42.556" lon="2.3212">
        <ele>622</ele>
        <time>2022-02-28T02:40:58+01:00</time>
      </trkpt>
      <trkpt lat="42.55611" lon="2.322">
        <ele>612</ele>
        <time>2022-02-28T02:42:08+01:00</time>
      </trkpt>
      <trkpt lat="42.55536" lon="2.32136">
        <ele>616</ele>
        <time>2022-02-28T02:44:31+01:00</time>
      </trkpt>
      <trkpt lat="42.55468" lon="2.32255">
        <ele>611</ele>
        <time>2022-02-28T02:46:39+01:00</time>
      </trkpt>
      <trkpt lat="42.55228" lon="2.32259">
        <ele>634</ele>
        <time>2022-02-28T02:55:10+01:00</time>
      </trkpt>
      <trkpt lat="42.55175" lon="2.32335">
        <ele>635</ele>
        <time>2022-02-28T02:56:49+01:00</time>
      </trkpt>
      <trkpt lat="42.54599" lon="2.32377">
        <ele>676</ele>
        <time>2022-02-28T03:14:52+01:00</time>
      </trkpt>
      <trkpt lat="42.54188" lon="2.32276">
        <ele>702</ele>
        <time>2022-02-28T03:27:17+01:00</time>
      </trkpt>
      <trkpt lat="42.54356" lon="2.32512">
        <ele>717</ele>
        <time>2022-02-28T03:34:28+01:00</time>
      </trkpt>
      <trkpt lat="42.54073" lon="2.33014">
        <ele>753</ele>
        <time>2022-02-28T03:49:31+01:00</time>
      </trkpt>
      <trkpt lat="42.54216" lon="2.32566">
        <ele>773</ele>
        <time>2022-02-28T03:59:48+01:00</time>
      </trkpt>
      <trkpt lat="42.53963" lon="2.32547">
        <ele>797</ele>
        <time>2022-02-28T04:08:45+01:00</time>
      </trkpt>
      <trkpt lat="42.53932" lon="2.32412">
        <ele>785</ele>
        <time>2022-02-28T04:10:45+01:00</time>
      </trkpt>
      <trkpt lat="42.5381" lon="2.32451">
        <ele>811</ele>
        <time>2022-02-28T04:17:35+01:00</time>
      </trkpt>
      <trkpt lat="42.53832" lon="2.32311">
        <ele>807</ele>
        <time>2022-02-28T04:19:36+01:00</time>
      </trkpt>
      <trkpt lat="42.5371" lon="2.32201">
        <ele>810</ele>
        <time>2022-02-28T04:22:54+01:00</time>
      </trkpt>
      <trkpt lat="42.536" lon="2.32095">
        <ele>831</ele>
        <time>2022-02-28T04:29:04+01:00</time>
      </trkpt>
      <trkpt lat="42.53644" lon="2.32278">
        <ele>847</ele>
        <time>2022-02-28T04:34:31+01:00</time>
      </trkpt>
      <trkpt lat="42.53703" lon="2.32385">
        <ele>848</ele>
        <time>2022-02-28T04:36:35+01:00</time>
      </trkpt>
      <trkpt lat="42.53611" lon="2.32359">
        <ele>859</ele>
        <time>2022-02-28T04:40:16+01:00</time>
      </trkpt>
      <trkpt lat="42.53621" lon="2.32616">
        <ele>877</ele>
        <time>2022-02-28T04:46:58+01:00</time>
      </trkpt>
      <trkpt lat="42.53801" lon="2.32721">
        <ele>882</ele>
        <time>2022-02-28T04:51:34+01:00</time>
      </trkpt>
      <trkpt lat="42.53766" lon="2.33023">
        <ele>882</ele>
        <time>2022-02-28T04:55:52+01:00</time>
      </trkpt>
      <trkpt lat="42.53704" lon="2.33083">
        <ele>878</ele>
        <time>2022-02-28T04:57:19+01:00</time>
      </trkpt>
      <trkpt lat="42.53444" lon="2.33025">
        <ele>885</ele>
        <time>2022-02-28T05:03:32+01:00</time>
      </trkpt>
      <trkpt lat="42.53318" lon="2.33293">
        <ele>877</ele>
        <time>2022-02-28T05:08:01+01:00</time>
      </trkpt>
      <trkpt lat="42.53365" lon="2.33501">
        <ele>878</ele>
        <time>2022-02-28T05:11:15+01:00</time>
      </trkpt>
      <trkpt lat="42.53737" lon="2.33599">
        <ele>874</ele>
        <time>2022-02-28T05:18:29+01:00</time>
      </trkpt>
      <trkpt lat="42.53844" lon="2.33644">
        <ele>886</ele>
        <time>2022-02-28T05:22:41+01:00</time>
      </trkpt>
      <trkpt lat="42.53912" lon="2.33874">
        <ele>897</ele>
        <time>2022-02-28T05:28:03+01:00</time>
      </trkpt>
      <trkpt lat="42.53768" lon="2.34045">
        <ele>894</ele>
        <time>2022-02-28T05:31:42+01:00</time>
      </trkpt>
      <trkpt lat="42.53748" lon="2.34322">
        <ele>871</ele>
        <time>2022-02-28T05:35:37+01:00</time>
      </trkpt>
      <trkpt lat="42.53652" lon="2.34327">
        <ele>862</ele>
        <time>2022-02-28T05:37:28+01:00</time>
      </trkpt>
      <trkpt lat="42.53659" lon="2.3464">
        <ele>843</ele>
        <time>2022-02-28T05:41:52+01:00</time>
      </trkpt>
      <trkpt lat="42.53806" lon="2.35124">
        <ele>815</ele>
        <time>2022-02-28T05:49:14+01:00</time>
      </trkpt>
      <trkpt lat="42.53888" lon="2.35427">
        <ele>788</ele>
        <time>2022-02-28T05:53:46+01:00</time>
      </trkpt>
      <trkpt lat="42.53787" lon="2.35602">
        <ele>781</ele>
        <time>2022-02-28T05:56:54+01:00</time>
      </trkpt>
      <trkpt lat="42.53527" lon="2.35622">
        <ele>765</ele>
        <time>2022-02-28T06:01:52+01:00</time>
      </trkpt>
      <trkpt lat="42.53989" lon="2.35762">
        <ele>724</ele>
        <time>2022-02-28T06:10:55+01:00</time>
      </trkpt>
      <trkpt lat="42.53398" lon="2.35963">
        <ele>677</ele>
        <time>2022-02-28T06:22:33+01:00</time>
      </trkpt>
      <trkpt lat="42.53218" lon="2.36053">
        <ele>674</ele>
        <time>2022-02-28T06:26:13+01:00</time>
      </trkpt>
      <trkpt lat="42.53303" lon="2.36273">
        <ele>680</ele>
        <time>2022-02-28T06:30:44+01:00</time>
      </trkpt>
      <trkpt lat="42.5348" lon="2.36265">
        <ele>659</ele>
        <time>2022-02-28T06:34:06+01:00</time>
      </trkpt>
      <trkpt lat="42.53583" lon="2.36432">
        <ele>666</ele>
        <time>2022-02-28T06:38:22+01:00</time>
      </trkpt>
      <trkpt lat="42.54065" lon="2.366">
        <ele>655</ele>
        <time>2022-02-28T06:47:52+01:00</time>
      </trkpt>
      <trkpt lat="42.54945" lon="2.37158">
        <ele>699</ele>
        <time>2022-02-28T07:13:57+01:00</time>
      </trkpt>
      <trkpt lat="42.54749" lon="2.37404">
        <ele>688</ele>
        <time>2022-02-28T07:19:03+01:00</time>
      </trkpt>
      <trkpt lat="42.54728" lon="2.37702">
        <ele>686</ele>
        <time>2022-02-28T07:23:16+01:00</time>
      </trkpt>
      <trkpt lat="42.54601" lon="2.3817">
        <ele>661</ele>
        <time>2022-02-28T07:30:17+01:00</time>
      </trkpt>
      <trkpt lat="42.5454" lon="2.38357">
        <ele>659</ele>
        <time>2022-02-28T07:33:10+01:00</time>
      </trkpt>
      <trkpt lat="42.5469" lon="2.38622">
        <ele>637</ele>
        <time>2022-02-28T07:37:51+01:00</time>
      </trkpt>
      <trkpt lat="42.54744" lon="2.38711">
        <ele>631</ele>
        <time>2022-02-28T07:39:29+01:00</time>
      </trkpt>
      <trkpt lat="42.5486" lon="2.387">
        <ele>643</ele>
        <time>2022-02-28T07:43:45+01:00</time>
      </trkpt>
      <trkpt lat="42.54759" lon="2.38788">
        <ele>643</ele>
        <time>2022-02-28T07:46:03+01:00</time>
      </trkpt>
      <trkpt lat="42.54771" lon="2.38896">
        <ele>656</ele>
        <time>2022-02-28T07:49:49+01:00</time>
      </trkpt>
      <trkpt lat="42.54688" lon="2.39001">
        <ele>658</ele>
        <time>2022-02-28T07:52:20+01:00</time>
      </trkpt>
      <trkpt lat="42.54656" lon="2.39117">
        <ele>670</ele>
        <time>2022-02-28T07:56:08+01:00</time>
      </trkpt>
      <trkpt lat="42.54904" lon="2.39068">
        <ele>685</ele>
        <time>2022-02-28T08:03:30+01:00</time>
      </trkpt>
      <trkpt lat="42.54962" lon="2.39291">
        <ele>691</ele>
        <time>2022-02-28T08:07:52+01:00</time>
      </trkpt>
      <trkpt lat="42.54877" lon="2.39491">
        <ele>709</ele>
        <time>2022-02-28T08:14:11+01:00</time>
      </trkpt>
      <trkpt lat="42.55002" lon="2.39797">
        <ele>720</ele>
        <time>2022-02-28T08:21:00+01:00</time>
      </trkpt>
      <trkpt lat="42.55172" lon="2.39904">
        <ele>731</ele>
        <time>2022-02-28T08:26:28+01:00</time>
      </trkpt>
      <trkpt lat="42.55468" lon="2.39618">
        <ele>752</ele>
        <time>2022-02-28T08:36:59+01:00</time>
      </trkpt>
      <trkpt lat="42.55522" lon="2.39724">
        <ele>761</ele>
        <time>2022-02-28T08:40:21+01:00</time>
      </trkpt>
      <trkpt lat="42.55701" lon="2.39431">
        <ele>773</ele>
        <time>2022-02-28T08:47:45+01:00</time>
      </trkpt>
      <trkpt lat="42.55874" lon="2.39413">
        <ele>786</ele>
        <time>2022-02-28T08:53:18+01:00</time>
      </trkpt>
      <trkpt lat="42.55906" lon="2.39672">
        <ele>786</ele>
        <time>2022-02-28T08:56:59+01:00</time>
      </trkpt>
      <trkpt lat="42.55803" lon="2.39788">
        <ele>783</ele>
        <time>2022-02-28T08:59:32+01:00</time>
      </trkpt>
      <trkpt lat="42.55756" lon="2.40484">
        <ele>760</ele>
        <time>2022-02-28T09:09:21+01:00</time>
      </trkpt>
      <trkpt lat="42.55942" lon="2.40878">
        <ele>759</ele>
        <time>2022-02-28T09:15:56+01:00</time>
      </trkpt>
      <trkpt lat="42.56246" lon="2.41131">
        <ele>770</ele>
        <time>2022-02-28T09:24:38+01:00</time>
      </trkpt>
      <trkpt lat="42.56427" lon="2.40866">
        <ele>779</ele>
        <time>2022-02-28T09:31:14+01:00</time>
      </trkpt>
      <trkpt lat="42.5683" lon="2.41469">
        <ele>789</ele>
        <time>2022-02-28T09:44:24+01:00</time>
      </trkpt>
      <trkpt lat="42.57084" lon="2.41264">
        <ele>772</ele>
        <time>2022-02-28T09:50:03+01:00</time>
      </trkpt>
      <trkpt lat="42.57182" lon="2.41524">
        <ele>794</ele>
        <time>2022-02-28T09:57:55+01:00</time>
      </trkpt>
      <trkpt lat="42.57478" lon="2.41392">
        <ele>784</ele>
        <time>2022-02-28T10:03:52+01:00</time>
      </trkpt>
      <trkpt lat="42.57507" lon="2.41064">
        <ele>762</ele>
        <time>2022-02-28T10:08:31+01:00</time>
      </trkpt>
      <trkpt lat="42.57844" lon="2.40871">
        <ele>753</ele>
        <time>2022-02-28T10:15:29+01:00</time>
      </trkpt>
      <trkpt lat="42.57912" lon="2.41003">
        <ele>747</ele>
        <time>2022-02-28T10:17:44+01:00</time>
      </trkpt>
      <trkpt lat="42.58034" lon="2.40939">
        <ele>742</ele>
        <time>2022-02-28T10:20:14+01:00</time>
      </trkpt>
      <trkpt lat="42.58259" lon="2.40894">
        <ele>740</ele>
        <time>2022-02-28T10:24:35+01:00</time>
      </trkpt>
      <trkpt lat="42.58129" lon="2.41186">
        <ele>722</ele>
        <time>2022-02-28T10:29:23+01:00</time>
      </trkpt>
      <trkpt lat="42.58246" lon="2.41348">
        <ele>710</ele>
        <time>2022-02-28T10:32:35+01:00</time>
      </trkpt>
      <trkpt lat="42.57984" lon="2.41651">
        <ele>678</ele>
        <time>2022-02-28T10:39:10+01:00</time>
      </trkpt>
      <trkpt lat="42.57947" lon="2.41831">
        <ele>665</ele>
        <time>2022-02-28T10:41:48+01:00</time>
      </trkpt>
      <trkpt lat="42.57984" lon="2.42025">
        <ele>651</ele>
        <time>2022-02-28T10:44:36+01:00</time>
      </trkpt>
      <trkpt lat="42.5789" lon="2.41993">
        <ele>652</ele>
        <time>2022-02-28T10:46:37+01:00</time>
      </trkpt>
      <trkpt lat="42.5784" lon="2.42179">
        <ele>633</ele>
        <time>2022-02-28T10:49:24+01:00</time>
      </trkpt>
      <trkpt lat="42.57766" lon="2.421">
        <ele>625</ele>
        <time>2022-02-28T10:51:12+01:00</time>
      </trkpt>
      <trkpt lat="42.57687" lon="2.42192">
        <ele>632</ele>
        <time>2022-02-28T10:54:23+01:00</time>
      </trkpt>
      <trkpt lat="42.57763" lon="2.42507">
        <ele>591</ele>
        <time>2022-02-28T10:59:02+01:00</time>
      </trkpt>
      <trkpt lat="42.57646" lon="2.42721">
        <ele>584</ele>
        <time>2022-02-28T11:02:47+01:00</time>
      </trkpt>
      <trkpt lat="42.57865" lon="2.42861">
        <ele>559</ele>
        <time>2022-02-28T11:07:24+01:00</time>
      </trkpt>
      <trkpt lat="42.57987" lon="2.42575">
        <ele>551</ele>
        <time>2022-02-28T11:12:04+01:00</time>
      </trkpt>
      <trkpt lat="42.5823" lon="2.42487">
        <ele>536</ele>
        <time>2022-02-28T11:16:51+01:00</time>
      </trkpt>
      <trkpt lat="42.58236" lon="2.42679">
        <ele>517</ele>
        <time>2022-02-28T11:19:33+01:00</time>
      </trkpt>
      <trkpt lat="42.58209" lon="2.4279">
        <ele>522</ele>
        <time>2022-02-28T11:22:03+01:00</time>
      </trkpt>
      <trkpt lat="42.58746" lon="2.42252">
        <ele>497</ele>
        <time>2022-02-28T11:34:47+01:00</time>
      </trkpt>
      <trkpt lat="42.59425" lon="2.4173">
        <ele>450</ele>
        <time>2022-02-28T11:49:40+01:00</time>
      </trkpt>
      <trkpt lat="42.60365" lon="2.41662">
        <ele>392</ele>
        <time>2022-02-28T12:07:38+01:00</time>
      </trkpt>
      <trkpt lat="42.60988" lon="2.41696">
        <ele>383</ele>
        <time>2022-02-28T12:19:31+01:00</time>
      </trkpt>
      <trkpt lat="42.61271" lon="2.41937">
        <ele>374</ele>
        <time>2022-02-28T12:25:54+01:00</time>
      </trkpt>
      <trkpt lat="42.61491" lon="2.42584">
        <ele>360</ele>
        <time>2022-02-28T12:35:54+01:00</time>
      </trkpt>
      <trkpt lat="42.6204" lon="2.43206">
        <ele>341</ele>
        <time>2022-02-28T12:49:32+01:00</time>
      </trkpt>
      <trkpt lat="42.62563" lon="2.4477">
        <ele>325</ele>
        <time>2022-02-28T13:13:39+01:00</time>
      </trkpt>
      <trkpt lat="42.63264" lon="2.46036">
        <ele>309</ele>
        <time>2022-02-28T13:35:54+01:00</time>
      </trkpt>
      <trkpt lat="42.63867" lon="2.47294">
        <ele>270</ele>
        <time>2022-02-28T13:56:59+01:00</time>
      </trkpt>
      <trkpt lat="42.64328" lon="2.4884">
        <ele>260</ele>
        <time>2022-02-28T14:20:24+01:00</time>
      </trkpt>
      <trkpt lat="42.64368" lon="2.49939">
        <ele>255</ele>
        <time>2022-02-28T14:35:51+01:00</time>
      </trkpt>
      <trkpt lat="42.64305" lon="2.50345">
        <ele>257</ele>
        <time>2022-02-28T14:42:01+01:00</time>
      </trkpt>
      <trkpt lat="42.64023" lon="2.50451">
        <ele>264</ele>
        <time>2022-02-28T14:48:48+01:00</time>
      </trkpt>
      <trkpt lat="42.62733" lon="2.49885">
        <ele>276</ele>
        <time>2022-02-28T15:16:43+01:00</time>
      </trkpt>
      <trkpt lat="42.6222" lon="2.50292">
        <ele>291</ele>
        <time>2022-02-28T15:30:38+01:00</time>
      </trkpt>
      <trkpt lat="42.62111" lon="2.50638">
        <ele>290</ele>
        <time>2022-02-28T15:35:56+01:00</time>
      </trkpt>
      <trkpt lat="42.61596" lon="2.50996">
        <ele>302</ele>
        <time>2022-02-28T15:49:02+01:00</time>
      </trkpt>
      <trkpt lat="42.61532" lon="2.51108">
        <ele>302</ele>
        <time>2022-02-28T15:51:01+01:00</time>
      </trkpt>
      <trkpt lat="42.61636" lon="2.51213">
        <ele>324</ele>
        <time>2022-02-28T15:57:16+01:00</time>
      </trkpt>
      <trkpt lat="42.61726" lon="2.51163">
        <ele>326</ele>
        <time>2022-02-28T15:59:28+01:00</time>
      </trkpt>
      <trkpt lat="42.61793" lon="2.51264">
        <ele>340</ele>
        <time>2022-02-28T16:03:46+01:00</time>
      </trkpt>
      <trkpt lat="42.61755" lon="2.51248">
        <ele>336</ele>
        <time>2022-02-28T16:04:32+01:00</time>
      </trkpt>
      <trkpt lat="42.6157" lon="2.51344">
        <ele>344</ele>
        <time>2022-02-28T16:09:41+01:00</time>
      </trkpt>
      <trkpt lat="42.61453" lon="2.51513">
        <ele>365</ele>
        <time>2022-02-28T16:16:33+01:00</time>
      </trkpt>
      <trkpt lat="42.61278" lon="2.51667">
        <ele>394</ele>
        <time>2022-02-28T16:25:30+01:00</time>
      </trkpt>
      <trkpt lat="42.61111" lon="2.5135">
        <ele>405</ele>
        <time>2022-02-28T16:32:51+01:00</time>
      </trkpt>
      <trkpt lat="42.60795" lon="2.51077">
        <ele>407</ele>
        <time>2022-02-28T16:40:21+01:00</time>
      </trkpt>
      <trkpt lat="42.60565" lon="2.51411">
        <ele>409</ele>
        <time>2022-02-28T16:47:07+01:00</time>
      </trkpt>
      <trkpt lat="42.60482" lon="2.51135">
        <ele>408</ele>
        <time>2022-02-28T16:51:18+01:00</time>
      </trkpt>
      <trkpt lat="42.60159" lon="2.51416">
        <ele>446</ele>
        <time>2022-02-28T17:05:08+01:00</time>
      </trkpt>
      <trkpt lat="42.60038" lon="2.51288">
        <ele>447</ele>
        <time>2022-02-28T17:08:14+01:00</time>
      </trkpt>
      <trkpt lat="42.59687" lon="2.51353">
        <ele>472</ele>
        <time>2022-02-28T17:19:16+01:00</time>
      </trkpt>
      <trkpt lat="42.59561" lon="2.51202">
        <ele>485</ele>
        <time>2022-02-28T17:24:43+01:00</time>
      </trkpt>
      <trkpt lat="42.5938" lon="2.51276">
        <ele>506</ele>
        <time>2022-02-28T17:31:55+01:00</time>
      </trkpt>
      <trkpt lat="42.59272" lon="2.51149">
        <ele>497</ele>
        <time>2022-02-28T17:34:39+01:00</time>
      </trkpt>
      <trkpt lat="42.59082" lon="2.51234">
        <ele>511</ele>
        <time>2022-02-28T17:40:53+01:00</time>
      </trkpt>
      <trkpt lat="42.59033" lon="2.51028">
        <ele>517</ele>
        <time>2022-02-28T17:44:57+01:00</time>
      </trkpt>
      <trkpt lat="42.58888" lon="2.51063">
        <ele>528</ele>
        <time>2022-02-28T17:49:39+01:00</time>
      </trkpt>
      <trkpt lat="42.58767" lon="2.51269">
        <ele>550</ele>
        <time>2022-02-28T17:57:08+01:00</time>
      </trkpt>
      <trkpt lat="42.58655" lon="2.51179">
        <ele>546</ele>
        <time>2022-02-28T17:59:37+01:00</time>
      </trkpt>
      <trkpt lat="42.58443" lon="2.51229">
        <ele>562</ele>
        <time>2022-02-28T18:06:28+01:00</time>
      </trkpt>
      <trkpt lat="42.58377" lon="2.51113">
        <ele>564</ele>
        <time>2022-02-28T18:08:52+01:00</time>
      </trkpt>
      <trkpt lat="42.58232" lon="2.51169">
        <ele>567</ele>
        <time>2022-02-28T18:12:16+01:00</time>
      </trkpt>
      <trkpt lat="42.58188" lon="2.51529">
        <ele>585</ele>
        <time>2022-02-28T18:20:29+01:00</time>
      </trkpt>
      <trkpt lat="42.58102" lon="2.51394">
        <ele>572</ele>
        <time>2022-02-28T18:23:00+01:00</time>
      </trkpt>
      <trkpt lat="42.57787" lon="2.51545">
        <ele>572</ele>
        <time>2022-02-28T18:29:22+01:00</time>
      </trkpt>
      <trkpt lat="42.5758" lon="2.51854">
        <ele>564</ele>
        <time>2022-02-28T18:35:14+01:00</time>
      </trkpt>
      <trkpt lat="42.57314" lon="2.51859">
        <ele>579</ele>
        <time>2022-02-28T18:42:52+01:00</time>
      </trkpt>
      <trkpt lat="42.57078" lon="2.52275">
        <ele>592</ele>
        <time>2022-02-28T18:52:28+01:00</time>
      </trkpt>
      <trkpt lat="42.56952" lon="2.52265">
        <ele>588</ele>
        <time>2022-02-28T18:54:53+01:00</time>
      </trkpt>
      <trkpt lat="42.56632" lon="2.52641">
        <ele>590</ele>
        <time>2022-02-28T19:03:18+01:00</time>
      </trkpt>
      <trkpt lat="42.56482" lon="2.52584">
        <ele>578</ele>
        <time>2022-02-28T19:06:17+01:00</time>
      </trkpt>
      <trkpt lat="42.56411" lon="2.52687">
        <ele>589</ele>
        <time>2022-02-28T19:10:09+01:00</time>
      </trkpt>
      <trkpt lat="42.56244" lon="2.52729">
        <ele>601</ele>
        <time>2022-02-28T19:15:27+01:00</time>
      </trkpt>
      <trkpt lat="42.55957" lon="2.53289">
        <ele>628</ele>
        <time>2022-02-28T19:29:40+01:00</time>
      </trkpt>
      <trkpt lat="42.55727" lon="2.53376">
        <ele>632</ele>
        <time>2022-02-28T19:34:54+01:00</time>
      </trkpt>
      <trkpt lat="42.55599" lon="2.53245">
        <ele>642</ele>
        <time>2022-02-28T19:39:41+01:00</time>
      </trkpt>
      <trkpt lat="42.55368" lon="2.53627">
        <ele>688</ele>
        <time>2022-02-28T19:54:31+01:00</time>
      </trkpt>
      <trkpt lat="42.55342" lon="2.53898">
        <ele>699</ele>
        <time>2022-02-28T20:00:15+01:00</time>
      </trkpt>
      <trkpt lat="42.55122" lon="2.54023">
        <ele>712</ele>
        <time>2022-02-28T20:07:01+01:00</time>
      </trkpt>
      <trkpt lat="42.54942" lon="2.5422">
        <ele>739</ele>
        <time>2022-02-28T20:16:03+01:00</time>
      </trkpt>
      <trkpt lat="42.54713" lon="2.54406">
        <ele>754</ele>
        <time>2022-02-28T20:23:43+01:00</time>
      </trkpt>
      <trkpt lat="42.5443" lon="2.54603">
        <ele>769</ele>
        <time>2022-02-28T20:32:21+01:00</time>
      </trkpt>
      <trkpt lat="42.54189" lon="2.54265">
        <ele>783</ele>
        <time>2022-02-28T20:41:21+01:00</time>
      </trkpt>
      <trkpt lat="42.54124" lon="2.5386">
        <ele>819</ele>
        <time>2022-02-28T20:53:21+01:00</time>
      </trkpt>
      <trkpt lat="42.53963" lon="2.53604">
        <ele>838</ele>
        <time>2022-02-28T21:01:20+01:00</time>
      </trkpt>
      <trkpt lat="42.53854" lon="2.5353">
        <ele>847</ele>
        <time>2022-02-28T21:05:11+01:00</time>
      </trkpt>
      <trkpt lat="42.53903" lon="2.53499">
        <ele>846</ele>
        <time>2022-02-28T21:06:13+01:00</time>
      </trkpt>
      <trkpt lat="42.53718" lon="2.53274">
        <ele>870</ele>
        <time>2022-02-28T21:15:04+01:00</time>
      </trkpt>
      <trkpt lat="42.53881" lon="2.54188">
        <ele>899</ele>
        <time>2022-02-28T21:33:15+01:00</time>
      </trkpt>
      <trkpt lat="42.54034" lon="2.5442">
        <ele>877</ele>
        <time>2022-02-28T21:37:38+01:00</time>
      </trkpt>
      <trkpt lat="42.53941" lon="2.5454">
        <ele>843</ele>
        <time>2022-02-28T21:40:05+01:00</time>
      </trkpt>
      <trkpt lat="42.53775" lon="2.54443">
        <ele>874</ele>
        <time>2022-02-28T21:48:50+01:00</time>
      </trkpt>
      <trkpt lat="42.5361" lon="2.54611">
        <ele>851</ele>
        <time>2022-02-28T21:52:46+01:00</time>
      </trkpt>
      <trkpt lat="42.54227" lon="2.54845">
        <ele>902</ele>
        <time>2022-02-28T22:13:45+01:00</time>
      </trkpt>
      <trkpt lat="42.53671" lon="2.55436">
        <ele>956</ele>
        <time>2022-02-28T22:36:29+01:00</time>
      </trkpt>
      <trkpt lat="42.53752" lon="2.55539">
        <ele>951</ele>
        <time>2022-02-28T22:38:36+01:00</time>
      </trkpt>
      <trkpt lat="42.53355" lon="2.56042">
        <ele>993</ele>
        <time>2022-02-28T22:56:10+01:00</time>
      </trkpt>
      <trkpt lat="42.53378" lon="2.56296">
        <ele>993</ele>
        <time>2022-02-28T22:59:46+01:00</time>
      </trkpt>
      <trkpt lat="42.53083" lon="2.56417">
        <ele>1023</ele>
        <time>2022-02-28T23:10:47+01:00</time>
      </trkpt>
      <trkpt lat="42.53527" lon="2.56549">
        <ele>1031</ele>
        <time>2022-02-28T23:20:50+01:00</time>
      </trkpt>
      <trkpt lat="42.5409" lon="2.57246">
        <ele>986</ele>
        <time>2022-02-28T23:35:23+01:00</time>
      </trkpt>
      <trkpt lat="42.54028" lon="2.57652">
        <ele>970</ele>
        <time>2022-02-28T23:41:13+01:00</time>
      </trkpt>
      <trkpt lat="42.54214" lon="2.57843">
        <ele>956</ele>
        <time>2022-02-28T23:45:39+01:00</time>
      </trkpt>
      <trkpt lat="42.53909" lon="2.57747">
        <ele>933</ele>
        <time>2022-02-28T23:51:37+01:00</time>
      </trkpt>
      <trkpt lat="42.541" lon="2.58061">
        <ele>909</ele>
        <time>2022-02-28T23:57:20+01:00</time>
      </trkpt>
      <trkpt lat="42.54344" lon="2.58178">
        <ele>896</ele>
        <time>2022-03-01T00:02:16+01:00</time>
      </trkpt>
      <trkpt lat="42.54674" lon="2.58088">
        <ele>873</ele>
        <time>2022-03-01T00:08:41+01:00</time>
      </trkpt>
      <trkpt lat="42.54741" lon="2.57653">
        <ele>854</ele>
        <time>2022-03-01T00:14:57+01:00</time>
      </trkpt>
      <trkpt lat="42.54843" lon="2.58081">
        <ele>829</ele>
        <time>2022-03-01T00:21:17+01:00</time>
      </trkpt>
      <trkpt lat="42.54746" lon="2.58714">
        <ele>790</ele>
        <time>2022-03-01T00:30:23+01:00</time>
      </trkpt>
      <trkpt lat="42.54562" lon="2.58681">
        <ele>782</ele>
        <time>2022-03-01T00:33:55+01:00</time>
      </trkpt>
      <trkpt lat="42.54336" lon="2.58817">
        <ele>769</ele>
        <time>2022-03-01T00:38:38+01:00</time>
      </trkpt>
      <trkpt lat="42.53698" lon="2.58643">
        <ele>733</ele>
        <time>2022-03-01T00:51:03+01:00</time>
      </trkpt>
      <trkpt lat="42.5349" lon="2.58154">
        <ele>719</ele>
        <time>2022-03-01T00:58:59+01:00</time>
      </trkpt>
      <trkpt lat="42.53489" lon="2.58763">
        <ele>688</ele>
        <time>2022-03-01T01:07:32+01:00</time>
      </trkpt>
      <trkpt lat="42.53064" lon="2.59058">
        <ele>660</ele>
        <time>2022-03-01T01:16:38+01:00</time>
      </trkpt>
      <trkpt lat="42.5347" lon="2.59007">
        <ele>661</ele>
        <time>2022-03-01T01:24:35+01:00</time>
      </trkpt>
      <trkpt lat="42.53588" lon="2.59237">
        <ele>678</ele>
        <time>2022-03-01T01:31:27+01:00</time>
      </trkpt>
      <trkpt lat="42.5387" lon="2.59301">
        <ele>676</ele>
        <time>2022-03-01T01:36:54+01:00</time>
      </trkpt>
      <trkpt lat="42.54056" lon="2.59441">
        <ele>680</ele>
        <time>2022-03-01T01:41:38+01:00</time>
      </trkpt>
      <trkpt lat="42.54005" lon="2.59999">
        <ele>700</ele>
        <time>2022-03-01T01:52:58+01:00</time>
      </trkpt>
      <trkpt lat="42.54356" lon="2.60203">
        <ele>703</ele>
        <time>2022-03-01T02:00:46+01:00</time>
      </trkpt>
      <trkpt lat="42.54548" lon="2.60384">
        <ele>714</ele>
        <time>2022-03-01T02:07:07+01:00</time>
      </trkpt>
      <trkpt lat="42.54893" lon="2.60459">
        <ele>718</ele>
        <time>2022-03-01T02:14:28+01:00</time>
      </trkpt>
      <trkpt lat="42.55069" lon="2.61057">
        <ele>740</ele>
        <time>2022-03-01T02:27:18+01:00</time>
      </trkpt>
      <trkpt lat="42.55362" lon="2.61277">
        <ele>741</ele>
        <time>2022-03-01T02:33:51+01:00</time>
      </trkpt>
      <trkpt lat="42.5531" lon="2.61527">
        <ele>755</ele>
        <time>2022-03-01T02:39:54+01:00</time>
      </trkpt>
      <trkpt lat="42.55519" lon="2.62093">
        <ele>730</ele>
        <time>2022-03-01T02:48:48+01:00</time>
      </trkpt>
      <trkpt lat="42.55946" lon="2.61986">
        <ele>718</ele>
        <time>2022-03-01T02:57:06+01:00</time>
      </trkpt>
      <trkpt lat="42.56023" lon="2.62332">
        <ele>691</ele>
        <time>2022-03-01T03:02:10+01:00</time>
      </trkpt>
      <trkpt lat="42.55962" lon="2.62477">
        <ele>684</ele>
        <time>2022-03-01T03:04:32+01:00</time>
      </trkpt>
      <trkpt lat="42.56466" lon="2.62566">
        <ele>671</ele>
        <time>2022-03-01T03:14:15+01:00</time>
      </trkpt>
      <trkpt lat="42.56414" lon="2.62999">
        <ele>663</ele>
        <time>2022-03-01T03:20:24+01:00</time>
      </trkpt>
      <trkpt lat="42.56152" lon="2.63493">
        <ele>663</ele>
        <time>2022-03-01T03:28:57+01:00</time>
      </trkpt>
      <trkpt lat="42.56531" lon="2.63499">
        <ele>666</ele>
        <time>2022-03-01T03:36:41+01:00</time>
      </trkpt>
      <trkpt lat="42.56596" lon="2.63745">
        <ele>647</ele>
        <time>2022-03-01T03:40:22+01:00</time>
      </trkpt>
      <trkpt lat="42.56511" lon="2.64099">
        <ele>651</ele>
        <time>2022-03-01T03:46:17+01:00</time>
      </trkpt>
      <trkpt lat="42.565" lon="2.64588">
        <ele>648</ele>
        <time>2022-03-01T03:53:10+01:00</time>
      </trkpt>
      <trkpt lat="42.56324" lon="2.64807">
        <ele>634</ele>
        <time>2022-03-01T03:57:43+01:00</time>
      </trkpt>
      <trkpt lat="42.56114" lon="2.65188">
        <ele>621</ele>
        <time>2022-03-01T04:04:25+01:00</time>
      </trkpt>
      <trkpt lat="42.55764" lon="2.65589">
        <ele>610</ele>
        <time>2022-03-01T04:13:09+01:00</time>
      </trkpt>
      <trkpt lat="42.55367" lon="2.65763">
        <ele>598</ele>
        <time>2022-03-01T04:21:08+01:00</time>
      </trkpt>
      <trkpt lat="42.5549" lon="2.65788">
        <ele>604</ele>
        <time>2022-03-01T04:24:32+01:00</time>
      </trkpt>
      <trkpt lat="42.55395" lon="2.66094">
        <ele>578</ele>
        <time>2022-03-01T04:29:12+01:00</time>
      </trkpt>
      <trkpt lat="42.55539" lon="2.66327">
        <ele>573</ele>
        <time>2022-03-01T04:33:28+01:00</time>
      </trkpt>
      <trkpt lat="42.55161" lon="2.66915">
        <ele>533</ele>
        <time>2022-03-01T04:44:26+01:00</time>
      </trkpt>
      <trkpt lat="42.55015" lon="2.66767">
        <ele>534</ele>
        <time>2022-03-01T04:48:05+01:00</time>
      </trkpt>
      <trkpt lat="42.55098" lon="2.67528">
        <ele>492</ele>
        <time>2022-03-01T04:58:54+01:00</time>
      </trkpt>
      <trkpt lat="42.54641" lon="2.68182">
        <ele>535</ele>
        <time>2022-03-01T05:18:57+01:00</time>
      </trkpt>
      <trkpt lat="42.54895" lon="2.68281">
        <ele>547</ele>
        <time>2022-03-01T05:26:03+01:00</time>
      </trkpt>
      <trkpt lat="42.54647" lon="2.68485">
        <ele>546</ele>
        <time>2022-03-01T05:31:35+01:00</time>
      </trkpt>
      <trkpt lat="42.54155" lon="2.68462">
        <ele>545</ele>
        <time>2022-03-01T05:40:59+01:00</time>
      </trkpt>
      <trkpt lat="42.5382" lon="2.68809">
        <ele>537</ele>
        <time>2022-03-01T05:49:01+01:00</time>
      </trkpt>
      <trkpt lat="42.53834" lon="2.69051">
        <ele>529</ele>
        <time>2022-03-01T05:52:25+01:00</time>
      </trkpt>
      <trkpt lat="42.54113" lon="2.69319">
        <ele>515</ele>
        <time>2022-03-01T05:58:56+01:00</time>
      </trkpt>
      <trkpt lat="42.54238" lon="2.69508">
        <ele>502</ele>
        <time>2022-03-01T06:02:30+01:00</time>
      </trkpt>
      <trkpt lat="42.54228" lon="2.69655">
        <ele>501</ele>
        <time>2022-03-01T06:04:35+01:00</time>
      </trkpt>
      <trkpt lat="42.54371" lon="2.69692">
        <ele>493</ele>
        <time>2022-03-01T06:07:21+01:00</time>
      </trkpt>
      <trkpt lat="42.54438" lon="2.69795">
        <ele>489</ele>
        <time>2022-03-01T06:09:17+01:00</time>
      </trkpt>
      <trkpt lat="42.54382" lon="2.70074">
        <ele>479</ele>
        <time>2022-03-01T06:13:21+01:00</time>
      </trkpt>
      <trkpt lat="42.54439" lon="2.70195">
        <ele>479</ele>
        <time>2022-03-01T06:15:23+01:00</time>
      </trkpt>
      <trkpt lat="42.5443" lon="2.70513">
        <ele>474</ele>
        <time>2022-03-01T06:19:51+01:00</time>
      </trkpt>
      <trkpt lat="42.54311" lon="2.70897">
        <ele>482</ele>
        <time>2022-03-01T06:27:05+01:00</time>
      </trkpt>
      <trkpt lat="42.54521" lon="2.71056">
        <ele>478</ele>
        <time>2022-03-01T06:31:40+01:00</time>
      </trkpt>
      <trkpt lat="42.54245" lon="2.71699">
        <ele>473</ele>
        <time>2022-03-01T06:42:08+01:00</time>
      </trkpt>
      <trkpt lat="42.54437" lon="2.72496">
        <ele>448</ele>
        <time>2022-03-01T06:53:55+01:00</time>
      </trkpt>
      <trkpt lat="42.54202" lon="2.72907">
        <ele>421</ele>
        <time>2022-03-01T07:01:13+01:00</time>
      </trkpt>
      <trkpt lat="42.54189" lon="2.7272">
        <ele>422</ele>
        <time>2022-03-01T07:04:02+01:00</time>
      </trkpt>
      <trkpt lat="42.54022" lon="2.73403">
        <ele>376</ele>
        <time>2022-03-01T07:14:09+01:00</time>
      </trkpt>
      <trkpt lat="42.54275" lon="2.73764">
        <ele>347</ele>
        <time>2022-03-01T07:21:09+01:00</time>
      </trkpt>
      <trkpt lat="42.5486" lon="2.74155">
        <ele>332</ele>
        <time>2022-03-01T07:33:36+01:00</time>
      </trkpt>
      <trkpt lat="42.54954" lon="2.74439">
        <ele>331</ele>
        <time>2022-03-01T07:37:59+01:00</time>
      </trkpt>
      <trkpt lat="42.54934" lon="2.74959">
        <ele>308</ele>
        <time>2022-03-01T07:45:18+01:00</time>
      </trkpt>
      <trkpt lat="42.54826" lon="2.74955">
        <ele>309</ele>
        <time>2022-03-01T07:47:31+01:00</time>
      </trkpt>
      <trkpt lat="42.5488" lon="2.75669">
        <ele>284</ele>
        <time>2022-03-01T07:57:36+01:00</time>
      </trkpt>
      <trkpt lat="42.54992" lon="2.75592">
        <ele>272</ele>
        <time>2022-03-01T07:59:59+01:00</time>
      </trkpt>
      <trkpt lat="42.55061" lon="2.75684">
        <ele>272</ele>
        <time>2022-03-01T08:01:50+01:00</time>
      </trkpt>
      <trkpt lat="42.55139" lon="2.75613">
        <ele>265</ele>
        <time>2022-03-01T08:03:38+01:00</time>
      </trkpt>
      <trkpt lat="42.55201" lon="2.75799">
        <ele>260</ele>
        <time>2022-03-01T08:06:30+01:00</time>
      </trkpt>
      <trkpt lat="42.55522" lon="2.75926">
        <ele>244</ele>
        <time>2022-03-01T08:12:53+01:00</time>
      </trkpt>
      <trkpt lat="42.55542" lon="2.76102">
        <ele>237</ele>
        <time>2022-03-01T08:15:23+01:00</time>
      </trkpt>
      <trkpt lat="42.55531" lon="2.76686">
        <ele>227</ele>
        <time>2022-03-01T08:23:35+01:00</time>
      </trkpt>
      <trkpt lat="42.55429" lon="2.77498">
        <ele>190</ele>
        <time>2022-03-01T08:35:10+01:00</time>
      </trkpt>
      <trkpt lat="42.55074" lon="2.77647">
        <ele>178</ele>
        <time>2022-03-01T08:42:15+01:00</time>
      </trkpt>
      <trkpt lat="42.55056" lon="2.78233">
        <ele>178</ele>
        <time>2022-03-01T08:50:30+01:00</time>
      </trkpt>
      <trkpt lat="42.54947" lon="2.78591">
        <ele>165</ele>
        <time>2022-03-01T08:55:57+01:00</time>
      </trkpt>
      <trkpt lat="42.55275" lon="2.79057">
        <ele>145</ele>
        <time>2022-03-01T09:05:00+01:00</time>
      </trkpt>
      <trkpt lat="42.55525" lon="2.78923">
        <ele>148</ele>
        <time>2022-03-01T09:10:39+01:00</time>
      </trkpt>
      <trkpt lat="42.55811" lon="2.79042">
        <ele>140</ele>
        <time>2022-03-01T09:16:21+01:00</time>
      </trkpt>
      <trkpt lat="42.55936" lon="2.79179">
        <ele>143</ele>
        <time>2022-03-01T09:19:57+01:00</time>
      </trkpt>
      <trkpt lat="42.56073" lon="2.795">
        <ele>129</ele>
        <time>2022-03-01T09:25:10+01:00</time>
      </trkpt>
      <trkpt lat="42.56295" lon="2.79731">
        <ele>125</ele>
        <time>2022-03-01T09:30:30+01:00</time>
      </trkpt>
      <trkpt lat="42.56416" lon="2.7972">
        <ele>128</ele>
        <time>2022-03-01T09:33:19+01:00</time>
      </trkpt>
      <trkpt lat="42.56632" lon="2.79951">
        <ele>129</ele>
        <time>2022-03-01T09:38:44+01:00</time>
      </trkpt>
      <trkpt lat="42.56802" lon="2.80224">
        <ele>129</ele>
        <time>2022-03-01T09:43:45+01:00</time>
      </trkpt>
      <trkpt lat="42.57132" lon="2.80362">
        <ele>133</ele>
        <time>2022-03-01T09:51:01+01:00</time>
      </trkpt>
      <trkpt lat="42.57433" lon="2.80745">
        <ele>123</ele>
        <time>2022-03-01T09:58:53+01:00</time>
      </trkpt>
      <trkpt lat="42.57578" lon="2.80998">
        <ele>132</ele>
        <time>2022-03-01T10:04:56+01:00</time>
      </trkpt>
      <trkpt lat="42.57753" lon="2.81057">
        <ele>131</ele>
        <time>2022-03-01T10:08:23+01:00</time>
      </trkpt>
      <trkpt lat="42.57789" lon="2.81186">
        <ele>127</ele>
        <time>2022-03-01T10:10:19+01:00</time>
      </trkpt>
      <trkpt lat="42.58" lon="2.81224">
        <ele>120</ele>
        <time>2022-03-01T10:14:22+01:00</time>
      </trkpt>
      <trkpt lat="42.58319" lon="2.8159">
        <ele>103</ele>
        <time>2022-03-01T10:22:20+01:00</time>
      </trkpt>
      <trkpt lat="42.58432" lon="2.82078">
        <ele>94</ele>
        <time>2022-03-01T10:29:31+01:00</time>
      </trkpt>
      <trkpt lat="42.58531" lon="2.82286">
        <ele>91</ele>
        <time>2022-03-01T10:33:00+01:00</time>
      </trkpt>
      <trkpt lat="42.58687" lon="2.82635">
        <ele>88</ele>
        <time>2022-03-01T10:38:43+01:00</time>
      </trkpt>
      <trkpt lat="42.58716" lon="2.8299">
        <ele>85</ele>
        <time>2022-03-01T10:43:45+01:00</time>
      </trkpt>
      <trkpt lat="42.58851" lon="2.83473">
        <ele>80</ele>
        <time>2022-03-01T10:51:01+01:00</time>
      </trkpt>
      <trkpt lat="42.59003" lon="2.83652">
        <ele>80</ele>
        <time>2022-03-01T10:54:50+01:00</time>
      </trkpt>
      <trkpt lat="42.58919" lon="2.83887">
        <ele>86</ele>
        <time>2022-03-01T10:59:32+01:00</time>
      </trkpt>
      <trkpt lat="42.59103" lon="2.84352">
        <ele>76</ele>
        <time>2022-03-01T11:06:57+01:00</time>
      </trkpt>
      <trkpt lat="42.59403" lon="2.84768">
        <ele>71</ele>
        <time>2022-03-01T11:15:08+01:00</time>
      </trkpt>
      <trkpt lat="42.59577" lon="2.85258">
        <ele>70</ele>
        <time>2022-03-01T11:22:46+01:00</time>
      </trkpt>
      <trkpt lat="42.5947" lon="2.85358">
        <ele>70</ele>
        <time>2022-03-01T11:25:15+01:00</time>
      </trkpt>
      <trkpt lat="42.5939" lon="2.85306">
        <ele>70</ele>
        <time>2022-03-01T11:26:57+01:00</time>
      </trkpt>
      <trkpt lat="42.59091" lon="2.85064">
        <ele>76</ele>
        <time>2022-03-01T11:34:38+01:00</time>
      </trkpt>
      <trkpt lat="42.58865" lon="2.853">
        <ele>82</ele>
        <time>2022-03-01T11:41:06+01:00</time>
      </trkpt>
      <trkpt lat="42.58692" lon="2.85352">
        <ele>81</ele>
        <time>2022-03-01T11:44:29+01:00</time>
      </trkpt>
      <trkpt lat="42.58538" lon="2.85779">
        <ele>75</ele>
        <time>2022-03-01T11:51:10+01:00</time>
      </trkpt>
      <trkpt lat="42.58024" lon="2.86675">
        <ele>68</ele>
        <time>2022-03-01T12:07:08+01:00</time>
      </trkpt>
      <trkpt lat="42.58168" lon="2.87577">
        <ele>72</ele>
        <time>2022-03-01T12:20:47+01:00</time>
      </trkpt>
      <trkpt lat="42.567" lon="2.89256">
        <ele>50</ele>
        <time>2022-03-01T12:57:24+01:00</time>
      </trkpt>
      <trkpt lat="42.56631" lon="2.90331">
        <ele>40</ele>
        <time>2022-03-01T13:12:34+01:00</time>
      </trkpt>
      <trkpt lat="42.58031" lon="2.91745">
        <ele>46</ele>
        <time>2022-03-01T13:46:54+01:00</time>
      </trkpt>
      <trkpt lat="42.58046" lon="2.92294">
        <ele>43</ele>
        <time>2022-03-01T13:54:37+01:00</time>
      </trkpt>
      <trkpt lat="42.57938" lon="2.93119">
        <ele>25</ele>
        <time>2022-03-01T14:06:23+01:00</time>
      </trkpt>
      <trkpt lat="42.57492" lon="2.94481">
        <ele>24</ele>
        <time>2022-03-01T14:27:20+01:00</time>
      </trkpt>
      <trkpt lat="42.57245" lon="2.95026">
        <ele>22</ele>
        <time>2022-03-01T14:36:20+01:00</time>
      </trkpt>
      <trkpt lat="42.57209" lon="2.95706">
        <ele>22</ele>
        <time>2022-03-01T14:45:55+01:00</time>
      </trkpt>
      <trkpt lat="42.57273" lon="2.96283">
        <ele>20</ele>
        <time>2022-03-01T14:54:07+01:00</time>
      </trkpt>
      <trkpt lat="42.57553" lon="2.9636">
        <ele>18</ele>
        <time>2022-03-01T14:59:34+01:00</time>
      </trkpt>
      <trkpt lat="42.57689" lon="2.96662">
        <ele>17</ele>
        <time>2022-03-01T15:04:32+01:00</time>
      </trkpt>
      <trkpt lat="42.58223" lon="2.97848">
        <ele>15</ele>
        <time>2022-03-01T15:24:04+01:00</time>
      </trkpt>
      <trkpt lat="42.58366" lon="2.9846">
        <ele>15</ele>
        <time>2022-03-01T15:33:05+01:00</time>
      </trkpt>
      <trkpt lat="42.58488" lon="2.98637">
        <ele>14</ele>
        <time>2022-03-01T15:36:30+01:00</time>
      </trkpt>
      <trkpt lat="42.584" lon="2.99021">
        <ele>13</ele>
        <time>2022-03-01T15:42:09+01:00</time>
      </trkpt>
      <trkpt lat="42.57644" lon="2.99571">
        <ele>10</ele>
        <time>2022-03-01T15:58:31+01:00</time>
      </trkpt>
      <trkpt lat="42.56833" lon="3.00307">
        <ele>9</ele>
        <time>2022-03-01T16:17:08+01:00</time>
      </trkpt>
      <trkpt lat="42.56746" lon="3.00588">
        <ele>9</ele>
        <time>2022-03-01T16:21:25+01:00</time>
      </trkpt>
      <trkpt lat="42.5711" lon="3.01313">
        <ele>5</ele>
        <time>2022-03-01T16:33:44+01:00</time>
      </trkpt>
      <trkpt lat="42.5729" lon="3.01565">
        <ele>5</ele>
        <time>2022-03-01T16:38:40+01:00</time>
      </trkpt>
      <trkpt lat="42.57338" lon="3.01942">
        <ele>5</ele>
        <time>2022-03-01T16:44:03+01:00</time>
      </trkpt>
      <trkpt lat="42.57069" lon="3.03307">
        <ele>3</ele>
        <time>2022-03-01T17:03:54+01:00</time>
      </trkpt>
      <trkpt lat="42.57155" lon="3.03851">
        <ele>3</ele>
        <time>2022-03-01T17:11:43+01:00</time>
      </trkpt>
      <trkpt lat="42.57139" lon="3.03783">
        <ele>3</ele>
        <time>2022-03-01T17:12:43+01:00</time>
      </trkpt>
      <trkpt lat="42.57429" lon="3.03442">
        <ele>3</ele>
        <time>2022-03-01T17:20:02+01:00</time>
      </trkpt>
      <trkpt lat="42.57134" lon="3.04066">
        <ele>2</ele>
        <time>2022-03-01T17:30:27+01:00</time>
      </trkpt>
      <trkpt lat="42.56074" lon="3.04119">
        <ele>2</ele>
        <time>2022-03-01T17:50:42+01:00</time>
      </trkpt>
    </trkseg>
  </trk>
</gpx>